<?xml version="1.0" encoding="UTF-8" ?>
<gpx xmlns="http://www.topografix.com/GPX/1/1" version="1.1" creator="RouteGadget GPS Tracking" xmlns:xsi="http://www.w3.org/2001/XMLSchema-instance" xmlns:tp1="http://www.garmin.com/xmlschemas/TrackPointExtension/v1" xsi:schemaLocation="http://www.topografix.com/GPX/1/1 http://www.topografix.com/GPX/1/1/gpx.xsd http://www.garmin.com/xmlschemas/TrackPointExtension/v1 http://www.garmin.com/xmlschemas/TrackPointExtensionv1.xsd">
<trk>
<trkseg><trkpt lat="61.105801" lon="25.930748">
<time>2020-09-09T14:02:46Z</time>
</trkpt>
<trkpt lat="61.105838" lon="25.93083">
<time>2020-09-09T14:02:47Z</time>
</trkpt>
<trkpt lat="61.10587" lon="25.930913">
<time>2020-09-09T14:02:48Z</time>
</trkpt>
<trkpt lat="61.105899" lon="25.931011">
<time>2020-09-09T14:02:49Z</time>
</trkpt>
<trkpt lat="61.105925" lon="25.931129">
<time>2020-09-09T14:02:50Z</time>
</trkpt>
<trkpt lat="61.105952" lon="25.931269">
<time>2020-09-09T14:02:51Z</time>
</trkpt>
<trkpt lat="61.105976" lon="25.931425">
<time>2020-09-09T14:02:52Z</time>
</trkpt>
<trkpt lat="61.105995" lon="25.931586">
<time>2020-09-09T14:02:53Z</time>
</trkpt>
<trkpt lat="61.106015" lon="25.931746">
<time>2020-09-09T14:02:54Z</time>
</trkpt>
<trkpt lat="61.106039" lon="25.93192">
<time>2020-09-09T14:02:55Z</time>
</trkpt>
<trkpt lat="61.106053" lon="25.9321">
<time>2020-09-09T14:02:56Z</time>
</trkpt>
<trkpt lat="61.106074" lon="25.932269">
<time>2020-09-09T14:02:57Z</time>
</trkpt>
<trkpt lat="61.1061" lon="25.932442">
<time>2020-09-09T14:02:58Z</time>
</trkpt>
<trkpt lat="61.106115" lon="25.932618">
<time>2020-09-09T14:03:00Z</time>
</trkpt>
<trkpt lat="61.10613" lon="25.932793">
<time>2020-09-09T14:03:01Z</time>
</trkpt>
<trkpt lat="61.106147" lon="25.932965">
<time>2020-09-09T14:03:02Z</time>
</trkpt>
<trkpt lat="61.106161" lon="25.933136">
<time>2020-09-09T14:03:03Z</time>
</trkpt>
<trkpt lat="61.106175" lon="25.933303">
<time>2020-09-09T14:03:04Z</time>
</trkpt>
<trkpt lat="61.106184" lon="25.93347">
<time>2020-09-09T14:03:05Z</time>
</trkpt>
<trkpt lat="61.106186" lon="25.933637">
<time>2020-09-09T14:03:06Z</time>
</trkpt>
<trkpt lat="61.106186" lon="25.933801">
<time>2020-09-09T14:03:07Z</time>
</trkpt>
<trkpt lat="61.106179" lon="25.933958">
<time>2020-09-09T14:03:08Z</time>
</trkpt>
<trkpt lat="61.106166" lon="25.93411">
<time>2020-09-09T14:03:09Z</time>
</trkpt>
<trkpt lat="61.106143" lon="25.934245">
<time>2020-09-09T14:03:10Z</time>
</trkpt>
<trkpt lat="61.106111" lon="25.934349">
<time>2020-09-09T14:03:11Z</time>
</trkpt>
<trkpt lat="61.10606" lon="25.934401">
<time>2020-09-09T14:03:12Z</time>
</trkpt>
<trkpt lat="61.105998" lon="25.934415">
<time>2020-09-09T14:03:13Z</time>
</trkpt>
<trkpt lat="61.105938" lon="25.934418">
<time>2020-09-09T14:03:14Z</time>
</trkpt>
<trkpt lat="61.105873" lon="25.934407">
<time>2020-09-09T14:03:15Z</time>
</trkpt>
<trkpt lat="61.10582" lon="25.934383">
<time>2020-09-09T14:03:16Z</time>
</trkpt>
<trkpt lat="61.105791" lon="25.934338">
<time>2020-09-09T14:03:17Z</time>
</trkpt>
<trkpt lat="61.10576" lon="25.934278">
<time>2020-09-09T14:03:18Z</time>
</trkpt>
<trkpt lat="61.10574" lon="25.934232">
<time>2020-09-09T14:03:19Z</time>
</trkpt>
<trkpt lat="61.105704" lon="25.934197">
<time>2020-09-09T14:03:20Z</time>
</trkpt>
<trkpt lat="61.10568" lon="25.934154">
<time>2020-09-09T14:03:21Z</time>
</trkpt>
<trkpt lat="61.105654" lon="25.934087">
<time>2020-09-09T14:03:22Z</time>
</trkpt>
<trkpt lat="61.105635" lon="25.934019">
<time>2020-09-09T14:03:23Z</time>
</trkpt>
<trkpt lat="61.105596" lon="25.933976">
<time>2020-09-09T14:03:24Z</time>
</trkpt>
<trkpt lat="61.105546" lon="25.933963">
<time>2020-09-09T14:03:25Z</time>
</trkpt>
<trkpt lat="61.10549" lon="25.933985">
<time>2020-09-09T14:03:26Z</time>
</trkpt>
<trkpt lat="61.10544" lon="25.93404">
<time>2020-09-09T14:03:27Z</time>
</trkpt>
<trkpt lat="61.1054" lon="25.934145">
<time>2020-09-09T14:03:28Z</time>
</trkpt>
<trkpt lat="61.10537" lon="25.93426">
<time>2020-09-09T14:03:29Z</time>
</trkpt>
<trkpt lat="61.105343" lon="25.934376">
<time>2020-09-09T14:03:30Z</time>
</trkpt>
<trkpt lat="61.105308" lon="25.934478">
<time>2020-09-09T14:03:31Z</time>
</trkpt>
<trkpt lat="61.105266" lon="25.934532">
<time>2020-09-09T14:03:32Z</time>
</trkpt>
<trkpt lat="61.10522" lon="25.934538">
<time>2020-09-09T14:03:33Z</time>
</trkpt>
<trkpt lat="61.105172" lon="25.934514">
<time>2020-09-09T14:03:34Z</time>
</trkpt>
<trkpt lat="61.105127" lon="25.934472">
<time>2020-09-09T14:03:35Z</time>
</trkpt>
<trkpt lat="61.105079" lon="25.934421">
<time>2020-09-09T14:03:36Z</time>
</trkpt>
<trkpt lat="61.105035" lon="25.934337">
<time>2020-09-09T14:03:37Z</time>
</trkpt>
<trkpt lat="61.104991" lon="25.934246">
<time>2020-09-09T14:03:38Z</time>
</trkpt>
<trkpt lat="61.104952" lon="25.93416">
<time>2020-09-09T14:03:39Z</time>
</trkpt>
<trkpt lat="61.104909" lon="25.934072">
<time>2020-09-09T14:03:40Z</time>
</trkpt>
<trkpt lat="61.104869" lon="25.933987">
<time>2020-09-09T14:03:41Z</time>
</trkpt>
<trkpt lat="61.104834" lon="25.933892">
<time>2020-09-09T14:03:42Z</time>
</trkpt>
<trkpt lat="61.104803" lon="25.9338">
<time>2020-09-09T14:03:43Z</time>
</trkpt>
<trkpt lat="61.104772" lon="25.93371">
<time>2020-09-09T14:03:44Z</time>
</trkpt>
<trkpt lat="61.104737" lon="25.933628">
<time>2020-09-09T14:03:45Z</time>
</trkpt>
<trkpt lat="61.10471" lon="25.933562">
<time>2020-09-09T14:03:46Z</time>
</trkpt>
<trkpt lat="61.104682" lon="25.933515">
<time>2020-09-09T14:03:47Z</time>
</trkpt>
<trkpt lat="61.104654" lon="25.933495">
<time>2020-09-09T14:03:48Z</time>
</trkpt>
<trkpt lat="61.10462" lon="25.933499">
<time>2020-09-09T14:03:49Z</time>
</trkpt>
<trkpt lat="61.104579" lon="25.933519">
<time>2020-09-09T14:03:50Z</time>
</trkpt>
<trkpt lat="61.104534" lon="25.933555">
<time>2020-09-09T14:03:51Z</time>
</trkpt>
<trkpt lat="61.104483" lon="25.933594">
<time>2020-09-09T14:03:52Z</time>
</trkpt>
<trkpt lat="61.104425" lon="25.933633">
<time>2020-09-09T14:03:53Z</time>
</trkpt>
<trkpt lat="61.104358" lon="25.933674">
<time>2020-09-09T14:03:54Z</time>
</trkpt>
<trkpt lat="61.104291" lon="25.933699">
<time>2020-09-09T14:03:55Z</time>
</trkpt>
<trkpt lat="61.104225" lon="25.933687">
<time>2020-09-09T14:03:56Z</time>
</trkpt>
<trkpt lat="61.104174" lon="25.933622">
<time>2020-09-09T14:03:57Z</time>
</trkpt>
<trkpt lat="61.10414" lon="25.933511">
<time>2020-09-09T14:03:58Z</time>
</trkpt>
<trkpt lat="61.104116" lon="25.933375">
<time>2020-09-09T14:03:59Z</time>
</trkpt>
<trkpt lat="61.104097" lon="25.933227">
<time>2020-09-09T14:04:00Z</time>
</trkpt>
<trkpt lat="61.10408" lon="25.933069">
<time>2020-09-09T14:04:01Z</time>
</trkpt>
<trkpt lat="61.104063" lon="25.932909">
<time>2020-09-09T14:04:02Z</time>
</trkpt>
<trkpt lat="61.104041" lon="25.932751">
<time>2020-09-09T14:04:03Z</time>
</trkpt>
<trkpt lat="61.104018" lon="25.932592">
<time>2020-09-09T14:04:04Z</time>
</trkpt>
<trkpt lat="61.103993" lon="25.93243">
<time>2020-09-09T14:04:05Z</time>
</trkpt>
<trkpt lat="61.103973" lon="25.93226">
<time>2020-09-09T14:04:06Z</time>
</trkpt>
<trkpt lat="61.103952" lon="25.932096">
<time>2020-09-09T14:04:07Z</time>
</trkpt>
<trkpt lat="61.103934" lon="25.931936">
<time>2020-09-09T14:04:08Z</time>
</trkpt>
<trkpt lat="61.103917" lon="25.931765">
<time>2020-09-09T14:04:09Z</time>
</trkpt>
<trkpt lat="61.103899" lon="25.931592">
<time>2020-09-09T14:04:10Z</time>
</trkpt>
<trkpt lat="61.103878" lon="25.931418">
<time>2020-09-09T14:04:11Z</time>
</trkpt>
<trkpt lat="61.103855" lon="25.931249">
<time>2020-09-09T14:04:12Z</time>
</trkpt>
<trkpt lat="61.103836" lon="25.931085">
<time>2020-09-09T14:04:13Z</time>
</trkpt>
<trkpt lat="61.103819" lon="25.930922">
<time>2020-09-09T14:04:14Z</time>
</trkpt>
<trkpt lat="61.103804" lon="25.930764">
<time>2020-09-09T14:04:15Z</time>
</trkpt>
<trkpt lat="61.103786" lon="25.930606">
<time>2020-09-09T14:04:16Z</time>
</trkpt>
<trkpt lat="61.103766" lon="25.93045">
<time>2020-09-09T14:04:17Z</time>
</trkpt>
<trkpt lat="61.103741" lon="25.930295">
<time>2020-09-09T14:04:18Z</time>
</trkpt>
<trkpt lat="61.10372" lon="25.93014">
<time>2020-09-09T14:04:19Z</time>
</trkpt>
<trkpt lat="61.1037" lon="25.929989">
<time>2020-09-09T14:04:20Z</time>
</trkpt>
<trkpt lat="61.103682" lon="25.929852">
<time>2020-09-09T14:04:21Z</time>
</trkpt>
<trkpt lat="61.103668" lon="25.929744">
<time>2020-09-09T14:04:22Z</time>
</trkpt>
<trkpt lat="61.103655" lon="25.929699">
<time>2020-09-09T14:04:23Z</time>
</trkpt>
<trkpt lat="61.103642" lon="25.929683">
<time>2020-09-09T14:04:24Z</time>
</trkpt>
<trkpt lat="61.103632" lon="25.929671">
<time>2020-09-09T14:04:25Z</time>
</trkpt>
<trkpt lat="61.103624" lon="25.929642">
<time>2020-09-09T14:04:26Z</time>
</trkpt>
<trkpt lat="61.103616" lon="25.92959">
<time>2020-09-09T14:04:27Z</time>
</trkpt>
<trkpt lat="61.103608" lon="25.929532">
<time>2020-09-09T14:04:28Z</time>
</trkpt>
<trkpt lat="61.103602" lon="25.929477">
<time>2020-09-09T14:04:29Z</time>
</trkpt>
<trkpt lat="61.103601" lon="25.929428">
<time>2020-09-09T14:04:30Z</time>
</trkpt>
<trkpt lat="61.103604" lon="25.929374">
<time>2020-09-09T14:04:31Z</time>
</trkpt>
<trkpt lat="61.103609" lon="25.929316">
<time>2020-09-09T14:04:32Z</time>
</trkpt>
<trkpt lat="61.103615" lon="25.929237">
<time>2020-09-09T14:04:33Z</time>
</trkpt>
<trkpt lat="61.103617" lon="25.92914">
<time>2020-09-09T14:04:34Z</time>
</trkpt>
<trkpt lat="61.103607" lon="25.929053">
<time>2020-09-09T14:04:35Z</time>
</trkpt>
<trkpt lat="61.103586" lon="25.928982">
<time>2020-09-09T14:04:36Z</time>
</trkpt>
<trkpt lat="61.103562" lon="25.92894">
<time>2020-09-09T14:04:37Z</time>
</trkpt>
<trkpt lat="61.103524" lon="25.928918">
<time>2020-09-09T14:04:38Z</time>
</trkpt>
<trkpt lat="61.103487" lon="25.928885">
<time>2020-09-09T14:04:39Z</time>
</trkpt>
<trkpt lat="61.103439" lon="25.928847">
<time>2020-09-09T14:04:40Z</time>
</trkpt>
<trkpt lat="61.10338" lon="25.928802">
<time>2020-09-09T14:04:41Z</time>
</trkpt>
<trkpt lat="61.103319" lon="25.928755">
<time>2020-09-09T14:04:42Z</time>
</trkpt>
<trkpt lat="61.103252" lon="25.928721">
<time>2020-09-09T14:04:43Z</time>
</trkpt>
<trkpt lat="61.103178" lon="25.928701">
<time>2020-09-09T14:04:44Z</time>
</trkpt>
<trkpt lat="61.103094" lon="25.928669">
<time>2020-09-09T14:04:45Z</time>
</trkpt>
<trkpt lat="61.103018" lon="25.928623">
<time>2020-09-09T14:04:46Z</time>
</trkpt>
<trkpt lat="61.102934" lon="25.928526">
<time>2020-09-09T14:04:47Z</time>
</trkpt>
<trkpt lat="61.102858" lon="25.928381">
<time>2020-09-09T14:04:48Z</time>
</trkpt>
<trkpt lat="61.102809" lon="25.928175">
<time>2020-09-09T14:04:49Z</time>
</trkpt>
<trkpt lat="61.10279" lon="25.927956">
<time>2020-09-09T14:04:50Z</time>
</trkpt>
<trkpt lat="61.102764" lon="25.927768">
<time>2020-09-09T14:04:51Z</time>
</trkpt>
<trkpt lat="61.102752" lon="25.927572">
<time>2020-09-09T14:04:52Z</time>
</trkpt>
<trkpt lat="61.102791" lon="25.927412">
<time>2020-09-09T14:04:53Z</time>
</trkpt>
<trkpt lat="61.102815" lon="25.927227">
<time>2020-09-09T14:04:54Z</time>
</trkpt>
<trkpt lat="61.102837" lon="25.927043">
<time>2020-09-09T14:04:55Z</time>
</trkpt>
<trkpt lat="61.102868" lon="25.926893">
<time>2020-09-09T14:04:56Z</time>
</trkpt>
<trkpt lat="61.102905" lon="25.926753">
<time>2020-09-09T14:04:57Z</time>
</trkpt>
<trkpt lat="61.102945" lon="25.926634">
<time>2020-09-09T14:04:58Z</time>
</trkpt>
<trkpt lat="61.102976" lon="25.926487">
<time>2020-09-09T14:04:59Z</time>
</trkpt>
<trkpt lat="61.102993" lon="25.92631">
<time>2020-09-09T14:05:00Z</time>
</trkpt>
<trkpt lat="61.103002" lon="25.926144">
<time>2020-09-09T14:05:01Z</time>
</trkpt>
<trkpt lat="61.102994" lon="25.925984">
<time>2020-09-09T14:05:02Z</time>
</trkpt>
<trkpt lat="61.102992" lon="25.92586">
<time>2020-09-09T14:05:03Z</time>
</trkpt>
<trkpt lat="61.102978" lon="25.925757">
<time>2020-09-09T14:05:04Z</time>
</trkpt>
<trkpt lat="61.102981" lon="25.925672">
<time>2020-09-09T14:05:05Z</time>
</trkpt>
<trkpt lat="61.102984" lon="25.925623">
<time>2020-09-09T14:05:06Z</time>
</trkpt>
<trkpt lat="61.102991" lon="25.925578">
<time>2020-09-09T14:05:07Z</time>
</trkpt>
<trkpt lat="61.103001" lon="25.925542">
<time>2020-09-09T14:05:08Z</time>
</trkpt>
<trkpt lat="61.103009" lon="25.925499">
<time>2020-09-09T14:05:09Z</time>
</trkpt>
<trkpt lat="61.103013" lon="25.925442">
<time>2020-09-09T14:05:10Z</time>
</trkpt>
<trkpt lat="61.103017" lon="25.92538">
<time>2020-09-09T14:05:11Z</time>
</trkpt>
<trkpt lat="61.103015" lon="25.92531">
<time>2020-09-09T14:05:12Z</time>
</trkpt>
<trkpt lat="61.103008" lon="25.925224">
<time>2020-09-09T14:05:13Z</time>
</trkpt>
<trkpt lat="61.103002" lon="25.925129">
<time>2020-09-09T14:05:14Z</time>
</trkpt>
<trkpt lat="61.102995" lon="25.925029">
<time>2020-09-09T14:05:15Z</time>
</trkpt>
<trkpt lat="61.10298" lon="25.924909">
<time>2020-09-09T14:05:16Z</time>
</trkpt>
<trkpt lat="61.102963" lon="25.924819">
<time>2020-09-09T14:05:17Z</time>
</trkpt>
<trkpt lat="61.102954" lon="25.924758">
<time>2020-09-09T14:05:18Z</time>
</trkpt>
<trkpt lat="61.10294" lon="25.924711">
<time>2020-09-09T14:05:19Z</time>
</trkpt>
<trkpt lat="61.102944" lon="25.924679">
<time>2020-09-09T14:05:20Z</time>
</trkpt>
<trkpt lat="61.102946" lon="25.924664">
<time>2020-09-09T14:05:21Z</time>
</trkpt>
<trkpt lat="61.102945" lon="25.924655">
<time>2020-09-09T14:05:22Z</time>
</trkpt>
<trkpt lat="61.102943" lon="25.924649">
<time>2020-09-09T14:05:23Z</time>
</trkpt>
<trkpt lat="61.102942" lon="25.92465">
<time>2020-09-09T14:05:24Z</time>
</trkpt>
<trkpt lat="61.102942" lon="25.924642">
<time>2020-09-09T14:05:25Z</time>
</trkpt>
<trkpt lat="61.102946" lon="25.924609">
<time>2020-09-09T14:05:26Z</time>
</trkpt>
<trkpt lat="61.102948" lon="25.924568">
<time>2020-09-09T14:05:27Z</time>
</trkpt>
<trkpt lat="61.10295" lon="25.924512">
<time>2020-09-09T14:05:28Z</time>
</trkpt>
<trkpt lat="61.102955" lon="25.924446">
<time>2020-09-09T14:05:29Z</time>
</trkpt>
<trkpt lat="61.102958" lon="25.92435">
<time>2020-09-09T14:05:30Z</time>
</trkpt>
<trkpt lat="61.102961" lon="25.924237">
<time>2020-09-09T14:05:31Z</time>
</trkpt>
<trkpt lat="61.102964" lon="25.924109">
<time>2020-09-09T14:05:32Z</time>
</trkpt>
<trkpt lat="61.102969" lon="25.923964">
<time>2020-09-09T14:05:33Z</time>
</trkpt>
<trkpt lat="61.102974" lon="25.923831">
<time>2020-09-09T14:05:34Z</time>
</trkpt>
<trkpt lat="61.102979" lon="25.923702">
<time>2020-09-09T14:05:35Z</time>
</trkpt>
<trkpt lat="61.10298" lon="25.923616">
<time>2020-09-09T14:05:36Z</time>
</trkpt>
<trkpt lat="61.10298" lon="25.923557">
<time>2020-09-09T14:05:37Z</time>
</trkpt>
<trkpt lat="61.102974" lon="25.923527">
<time>2020-09-09T14:05:38Z</time>
</trkpt>
<trkpt lat="61.102966" lon="25.923487">
<time>2020-09-09T14:05:39Z</time>
</trkpt>
<trkpt lat="61.102953" lon="25.923453">
<time>2020-09-09T14:05:40Z</time>
</trkpt>
<trkpt lat="61.102949" lon="25.923445">
<time>2020-09-09T14:05:41Z</time>
</trkpt>
<trkpt lat="61.102943" lon="25.923438">
<time>2020-09-09T14:05:42Z</time>
</trkpt>
<trkpt lat="61.102939" lon="25.923433">
<time>2020-09-09T14:05:43Z</time>
</trkpt>
<trkpt lat="61.102935" lon="25.923432">
<time>2020-09-09T14:05:44Z</time>
</trkpt>
<trkpt lat="61.102933" lon="25.923429">
<time>2020-09-09T14:05:45Z</time>
</trkpt>
<trkpt lat="61.102933" lon="25.923428">
<time>2020-09-09T14:05:46Z</time>
</trkpt>
<trkpt lat="61.102933" lon="25.923427">
<time>2020-09-09T14:05:47Z</time>
</trkpt>
<trkpt lat="61.102933" lon="25.923425">
<time>2020-09-09T14:05:48Z</time>
</trkpt>
<trkpt lat="61.102934" lon="25.923424">
<time>2020-09-09T14:05:49Z</time>
</trkpt>
<trkpt lat="61.102934" lon="25.923422">
<time>2020-09-09T14:05:50Z</time>
</trkpt>
<trkpt lat="61.102942" lon="25.923433">
<time>2020-09-09T14:05:51Z</time>
</trkpt>
<trkpt lat="61.102948" lon="25.923455">
<time>2020-09-09T14:05:52Z</time>
</trkpt>
<trkpt lat="61.102952" lon="25.923479">
<time>2020-09-09T14:05:53Z</time>
</trkpt>
<trkpt lat="61.102959" lon="25.923505">
<time>2020-09-09T14:05:54Z</time>
</trkpt>
<trkpt lat="61.102965" lon="25.923542">
<time>2020-09-09T14:05:55Z</time>
</trkpt>
<trkpt lat="61.102967" lon="25.923595">
<time>2020-09-09T14:05:56Z</time>
</trkpt>
<trkpt lat="61.102969" lon="25.923661">
<time>2020-09-09T14:05:57Z</time>
</trkpt>
<trkpt lat="61.102977" lon="25.923742">
<time>2020-09-09T14:05:58Z</time>
</trkpt>
<trkpt lat="61.102976" lon="25.923843">
<time>2020-09-09T14:05:59Z</time>
</trkpt>
<trkpt lat="61.102963" lon="25.923932">
<time>2020-09-09T14:06:00Z</time>
</trkpt>
<trkpt lat="61.102948" lon="25.924023">
<time>2020-09-09T14:06:01Z</time>
</trkpt>
<trkpt lat="61.10293" lon="25.924086">
<time>2020-09-09T14:06:02Z</time>
</trkpt>
<trkpt lat="61.102893" lon="25.924147">
<time>2020-09-09T14:06:03Z</time>
</trkpt>
<trkpt lat="61.102856" lon="25.924181">
<time>2020-09-09T14:06:04Z</time>
</trkpt>
<trkpt lat="61.102813" lon="25.92422">
<time>2020-09-09T14:06:05Z</time>
</trkpt>
<trkpt lat="61.102769" lon="25.924238">
<time>2020-09-09T14:06:06Z</time>
</trkpt>
<trkpt lat="61.102712" lon="25.924242">
<time>2020-09-09T14:06:07Z</time>
</trkpt>
<trkpt lat="61.102651" lon="25.924251">
<time>2020-09-09T14:06:08Z</time>
</trkpt>
<trkpt lat="61.102592" lon="25.924268">
<time>2020-09-09T14:06:09Z</time>
</trkpt>
<trkpt lat="61.102543" lon="25.924302">
<time>2020-09-09T14:06:10Z</time>
</trkpt>
<trkpt lat="61.102522" lon="25.924316">
<time>2020-09-09T14:06:11Z</time>
</trkpt>
<trkpt lat="61.102507" lon="25.924314">
<time>2020-09-09T14:06:12Z</time>
</trkpt>
<trkpt lat="61.102497" lon="25.924292">
<time>2020-09-09T14:06:13Z</time>
</trkpt>
<trkpt lat="61.102478" lon="25.924278">
<time>2020-09-09T14:06:14Z</time>
</trkpt>
<trkpt lat="61.102455" lon="25.924268">
<time>2020-09-09T14:06:15Z</time>
</trkpt>
<trkpt lat="61.102422" lon="25.924268">
<time>2020-09-09T14:06:16Z</time>
</trkpt>
<trkpt lat="61.102386" lon="25.924264">
<time>2020-09-09T14:06:17Z</time>
</trkpt>
<trkpt lat="61.10234" lon="25.924251">
<time>2020-09-09T14:06:18Z</time>
</trkpt>
<trkpt lat="61.102292" lon="25.92424">
<time>2020-09-09T14:06:19Z</time>
</trkpt>
<trkpt lat="61.102257" lon="25.924214">
<time>2020-09-09T14:06:20Z</time>
</trkpt>
<trkpt lat="61.102228" lon="25.924177">
<time>2020-09-09T14:06:21Z</time>
</trkpt>
<trkpt lat="61.102205" lon="25.92416">
<time>2020-09-09T14:06:22Z</time>
</trkpt>
<trkpt lat="61.102179" lon="25.924154">
<time>2020-09-09T14:06:23Z</time>
</trkpt>
<trkpt lat="61.102161" lon="25.924146">
<time>2020-09-09T14:06:24Z</time>
</trkpt>
<trkpt lat="61.102148" lon="25.924141">
<time>2020-09-09T14:06:25Z</time>
</trkpt>
<trkpt lat="61.102134" lon="25.924135">
<time>2020-09-09T14:06:26Z</time>
</trkpt>
<trkpt lat="61.102124" lon="25.924116">
<time>2020-09-09T14:06:27Z</time>
</trkpt>
<trkpt lat="61.102109" lon="25.924101">
<time>2020-09-09T14:06:28Z</time>
</trkpt>
<trkpt lat="61.102089" lon="25.92409">
<time>2020-09-09T14:06:29Z</time>
</trkpt>
<trkpt lat="61.102069" lon="25.924092">
<time>2020-09-09T14:06:30Z</time>
</trkpt>
<trkpt lat="61.102048" lon="25.924093">
<time>2020-09-09T14:06:31Z</time>
</trkpt>
<trkpt lat="61.102029" lon="25.92409">
<time>2020-09-09T14:06:32Z</time>
</trkpt>
<trkpt lat="61.101998" lon="25.92409">
<time>2020-09-09T14:06:33Z</time>
</trkpt>
<trkpt lat="61.101965" lon="25.924092">
<time>2020-09-09T14:06:34Z</time>
</trkpt>
<trkpt lat="61.101938" lon="25.924082">
<time>2020-09-09T14:06:35Z</time>
</trkpt>
<trkpt lat="61.10191" lon="25.924059">
<time>2020-09-09T14:06:36Z</time>
</trkpt>
<trkpt lat="61.101882" lon="25.924046">
<time>2020-09-09T14:06:37Z</time>
</trkpt>
<trkpt lat="61.101861" lon="25.924039">
<time>2020-09-09T14:06:38Z</time>
</trkpt>
<trkpt lat="61.101852" lon="25.924036">
<time>2020-09-09T14:06:39Z</time>
</trkpt>
<trkpt lat="61.101844" lon="25.924024">
<time>2020-09-09T14:06:40Z</time>
</trkpt>
<trkpt lat="61.101835" lon="25.924">
<time>2020-09-09T14:06:41Z</time>
</trkpt>
<trkpt lat="61.101824" lon="25.923972">
<time>2020-09-09T14:06:42Z</time>
</trkpt>
<trkpt lat="61.101814" lon="25.923925">
<time>2020-09-09T14:06:43Z</time>
</trkpt>
<trkpt lat="61.101807" lon="25.923867">
<time>2020-09-09T14:06:44Z</time>
</trkpt>
<trkpt lat="61.101798" lon="25.923802">
<time>2020-09-09T14:06:45Z</time>
</trkpt>
<trkpt lat="61.101791" lon="25.923715">
<time>2020-09-09T14:06:46Z</time>
</trkpt>
<trkpt lat="61.101787" lon="25.923612">
<time>2020-09-09T14:06:47Z</time>
</trkpt>
<trkpt lat="61.101776" lon="25.923483">
<time>2020-09-09T14:06:48Z</time>
</trkpt>
<trkpt lat="61.101774" lon="25.92337">
<time>2020-09-09T14:06:49Z</time>
</trkpt>
<trkpt lat="61.101776" lon="25.923254">
<time>2020-09-09T14:06:50Z</time>
</trkpt>
<trkpt lat="61.10178" lon="25.923135">
<time>2020-09-09T14:06:51Z</time>
</trkpt>
<trkpt lat="61.101787" lon="25.923016">
<time>2020-09-09T14:06:52Z</time>
</trkpt>
<trkpt lat="61.101794" lon="25.922901">
<time>2020-09-09T14:06:53Z</time>
</trkpt>
<trkpt lat="61.101803" lon="25.922782">
<time>2020-09-09T14:06:54Z</time>
</trkpt>
<trkpt lat="61.101801" lon="25.922659">
<time>2020-09-09T14:06:55Z</time>
</trkpt>
<trkpt lat="61.101801" lon="25.922536">
<time>2020-09-09T14:06:56Z</time>
</trkpt>
<trkpt lat="61.101801" lon="25.922417">
<time>2020-09-09T14:06:57Z</time>
</trkpt>
<trkpt lat="61.101802" lon="25.922301">
<time>2020-09-09T14:06:58Z</time>
</trkpt>
<trkpt lat="61.101801" lon="25.922168">
<time>2020-09-09T14:06:59Z</time>
</trkpt>
<trkpt lat="61.101805" lon="25.922036">
<time>2020-09-09T14:07:00Z</time>
</trkpt>
<trkpt lat="61.101809" lon="25.921913">
<time>2020-09-09T14:07:01Z</time>
</trkpt>
<trkpt lat="61.101815" lon="25.921801">
<time>2020-09-09T14:07:02Z</time>
</trkpt>
<trkpt lat="61.101823" lon="25.921695">
<time>2020-09-09T14:07:03Z</time>
</trkpt>
<trkpt lat="61.101832" lon="25.921573">
<time>2020-09-09T14:07:04Z</time>
</trkpt>
<trkpt lat="61.101841" lon="25.921446">
<time>2020-09-09T14:07:05Z</time>
</trkpt>
<trkpt lat="61.101865" lon="25.921309">
<time>2020-09-09T14:07:06Z</time>
</trkpt>
<trkpt lat="61.101897" lon="25.921179">
<time>2020-09-09T14:07:07Z</time>
</trkpt>
<trkpt lat="61.101927" lon="25.921073">
<time>2020-09-09T14:07:08Z</time>
</trkpt>
<trkpt lat="61.101958" lon="25.920976">
<time>2020-09-09T14:07:09Z</time>
</trkpt>
<trkpt lat="61.101997" lon="25.920907">
<time>2020-09-09T14:07:10Z</time>
</trkpt>
<trkpt lat="61.102038" lon="25.920868">
<time>2020-09-09T14:07:11Z</time>
</trkpt>
<trkpt lat="61.102078" lon="25.920874">
<time>2020-09-09T14:07:12Z</time>
</trkpt>
<trkpt lat="61.102118" lon="25.92092">
<time>2020-09-09T14:07:13Z</time>
</trkpt>
<trkpt lat="61.102165" lon="25.920977">
<time>2020-09-09T14:07:14Z</time>
</trkpt>
<trkpt lat="61.102202" lon="25.921034">
<time>2020-09-09T14:07:15Z</time>
</trkpt>
<trkpt lat="61.102226" lon="25.921096">
<time>2020-09-09T14:07:16Z</time>
</trkpt>
<trkpt lat="61.102247" lon="25.921159">
<time>2020-09-09T14:07:17Z</time>
</trkpt>
<trkpt lat="61.102273" lon="25.92123">
<time>2020-09-09T14:07:18Z</time>
</trkpt>
<trkpt lat="61.102298" lon="25.921313">
<time>2020-09-09T14:07:19Z</time>
</trkpt>
<trkpt lat="61.102319" lon="25.921405">
<time>2020-09-09T14:07:20Z</time>
</trkpt>
<trkpt lat="61.102333" lon="25.921486">
<time>2020-09-09T14:07:21Z</time>
</trkpt>
<trkpt lat="61.102346" lon="25.921554">
<time>2020-09-09T14:07:22Z</time>
</trkpt>
<trkpt lat="61.102356" lon="25.921623">
<time>2020-09-09T14:07:23Z</time>
</trkpt>
<trkpt lat="61.102371" lon="25.921697">
<time>2020-09-09T14:07:24Z</time>
</trkpt>
<trkpt lat="61.102377" lon="25.921771">
<time>2020-09-09T14:07:25Z</time>
</trkpt>
<trkpt lat="61.102391" lon="25.921842">
<time>2020-09-09T14:07:26Z</time>
</trkpt>
<trkpt lat="61.10241" lon="25.921914">
<time>2020-09-09T14:07:27Z</time>
</trkpt>
<trkpt lat="61.102445" lon="25.922004">
<time>2020-09-09T14:07:28Z</time>
</trkpt>
<trkpt lat="61.102473" lon="25.922102">
<time>2020-09-09T14:07:29Z</time>
</trkpt>
<trkpt lat="61.1025" lon="25.922204">
<time>2020-09-09T14:07:30Z</time>
</trkpt>
<trkpt lat="61.102524" lon="25.922363">
<time>2020-09-09T14:07:31Z</time>
</trkpt>
<trkpt lat="61.10256" lon="25.922486">
<time>2020-09-09T14:07:32Z</time>
</trkpt>
<trkpt lat="61.102592" lon="25.922618">
<time>2020-09-09T14:07:33Z</time>
</trkpt>
<trkpt lat="61.102615" lon="25.922719">
<time>2020-09-09T14:07:34Z</time>
</trkpt>
<trkpt lat="61.102661" lon="25.922823">
<time>2020-09-09T14:07:35Z</time>
</trkpt>
<trkpt lat="61.102689" lon="25.922931">
<time>2020-09-09T14:07:36Z</time>
</trkpt>
<trkpt lat="61.102727" lon="25.923017">
<time>2020-09-09T14:07:37Z</time>
</trkpt>
<trkpt lat="61.102774" lon="25.923104">
<time>2020-09-09T14:07:38Z</time>
</trkpt>
<trkpt lat="61.102806" lon="25.923161">
<time>2020-09-09T14:07:39Z</time>
</trkpt>
<trkpt lat="61.102834" lon="25.923212">
<time>2020-09-09T14:07:40Z</time>
</trkpt>
<trkpt lat="61.102854" lon="25.923256">
<time>2020-09-09T14:07:41Z</time>
</trkpt>
<trkpt lat="61.10288" lon="25.923299">
<time>2020-09-09T14:07:42Z</time>
</trkpt>
<trkpt lat="61.102908" lon="25.923341">
<time>2020-09-09T14:07:43Z</time>
</trkpt>
<trkpt lat="61.102931" lon="25.923376">
<time>2020-09-09T14:07:44Z</time>
</trkpt>
<trkpt lat="61.102947" lon="25.923408">
<time>2020-09-09T14:07:45Z</time>
</trkpt>
<trkpt lat="61.102967" lon="25.923444">
<time>2020-09-09T14:07:46Z</time>
</trkpt>
<trkpt lat="61.10299" lon="25.923483">
<time>2020-09-09T14:07:47Z</time>
</trkpt>
<trkpt lat="61.103014" lon="25.923521">
<time>2020-09-09T14:07:48Z</time>
</trkpt>
<trkpt lat="61.10304" lon="25.923552">
<time>2020-09-09T14:07:49Z</time>
</trkpt>
<trkpt lat="61.103063" lon="25.923566">
<time>2020-09-09T14:07:50Z</time>
</trkpt>
<trkpt lat="61.103091" lon="25.923597">
<time>2020-09-09T14:07:51Z</time>
</trkpt>
<trkpt lat="61.103121" lon="25.923628">
<time>2020-09-09T14:07:52Z</time>
</trkpt>
<trkpt lat="61.103143" lon="25.923669">
<time>2020-09-09T14:07:53Z</time>
</trkpt>
<trkpt lat="61.103168" lon="25.923712">
<time>2020-09-09T14:07:54Z</time>
</trkpt>
<trkpt lat="61.103204" lon="25.92373">
<time>2020-09-09T14:07:55Z</time>
</trkpt>
<trkpt lat="61.103243" lon="25.923752">
<time>2020-09-09T14:07:56Z</time>
</trkpt>
<trkpt lat="61.103277" lon="25.923763">
<time>2020-09-09T14:07:57Z</time>
</trkpt>
<trkpt lat="61.103309" lon="25.923778">
<time>2020-09-09T14:07:58Z</time>
</trkpt>
<trkpt lat="61.103341" lon="25.923797">
<time>2020-09-09T14:07:59Z</time>
</trkpt>
<trkpt lat="61.103377" lon="25.923809">
<time>2020-09-09T14:08:00Z</time>
</trkpt>
<trkpt lat="61.103409" lon="25.923812">
<time>2020-09-09T14:08:01Z</time>
</trkpt>
<trkpt lat="61.103439" lon="25.923826">
<time>2020-09-09T14:08:02Z</time>
</trkpt>
<trkpt lat="61.103472" lon="25.923829">
<time>2020-09-09T14:08:03Z</time>
</trkpt>
<trkpt lat="61.103502" lon="25.923834">
<time>2020-09-09T14:08:04Z</time>
</trkpt>
<trkpt lat="61.103534" lon="25.923833">
<time>2020-09-09T14:08:05Z</time>
</trkpt>
<trkpt lat="61.103569" lon="25.92383">
<time>2020-09-09T14:08:06Z</time>
</trkpt>
<trkpt lat="61.103603" lon="25.923831">
<time>2020-09-09T14:08:07Z</time>
</trkpt>
<trkpt lat="61.103636" lon="25.923823">
<time>2020-09-09T14:08:08Z</time>
</trkpt>
<trkpt lat="61.103668" lon="25.923808">
<time>2020-09-09T14:08:09Z</time>
</trkpt>
<trkpt lat="61.103698" lon="25.923787">
<time>2020-09-09T14:08:10Z</time>
</trkpt>
<trkpt lat="61.103735" lon="25.923767">
<time>2020-09-09T14:08:11Z</time>
</trkpt>
<trkpt lat="61.103767" lon="25.923758">
<time>2020-09-09T14:08:12Z</time>
</trkpt>
<trkpt lat="61.103802" lon="25.923743">
<time>2020-09-09T14:08:13Z</time>
</trkpt>
<trkpt lat="61.103839" lon="25.923723">
<time>2020-09-09T14:08:14Z</time>
</trkpt>
<trkpt lat="61.103875" lon="25.923704">
<time>2020-09-09T14:08:15Z</time>
</trkpt>
<trkpt lat="61.103914" lon="25.923693">
<time>2020-09-09T14:08:16Z</time>
</trkpt>
<trkpt lat="61.103946" lon="25.923675">
<time>2020-09-09T14:08:17Z</time>
</trkpt>
<trkpt lat="61.103986" lon="25.923667">
<time>2020-09-09T14:08:18Z</time>
</trkpt>
<trkpt lat="61.104023" lon="25.923652">
<time>2020-09-09T14:08:19Z</time>
</trkpt>
<trkpt lat="61.104058" lon="25.923631">
<time>2020-09-09T14:08:20Z</time>
</trkpt>
<trkpt lat="61.104096" lon="25.923606">
<time>2020-09-09T14:08:21Z</time>
</trkpt>
<trkpt lat="61.10414" lon="25.923574">
<time>2020-09-09T14:08:22Z</time>
</trkpt>
<trkpt lat="61.104182" lon="25.923546">
<time>2020-09-09T14:08:23Z</time>
</trkpt>
<trkpt lat="61.104229" lon="25.923521">
<time>2020-09-09T14:08:24Z</time>
</trkpt>
<trkpt lat="61.104272" lon="25.923504">
<time>2020-09-09T14:08:25Z</time>
</trkpt>
<trkpt lat="61.104331" lon="25.923483">
<time>2020-09-09T14:08:26Z</time>
</trkpt>
<trkpt lat="61.104389" lon="25.923462">
<time>2020-09-09T14:08:27Z</time>
</trkpt>
<trkpt lat="61.104447" lon="25.923442">
<time>2020-09-09T14:08:28Z</time>
</trkpt>
<trkpt lat="61.104499" lon="25.923436">
<time>2020-09-09T14:08:29Z</time>
</trkpt>
<trkpt lat="61.104543" lon="25.923436">
<time>2020-09-09T14:08:30Z</time>
</trkpt>
<trkpt lat="61.104571" lon="25.923447">
<time>2020-09-09T14:08:31Z</time>
</trkpt>
<trkpt lat="61.104599" lon="25.923473">
<time>2020-09-09T14:08:32Z</time>
</trkpt>
<trkpt lat="61.104628" lon="25.923505">
<time>2020-09-09T14:08:33Z</time>
</trkpt>
<trkpt lat="61.104654" lon="25.923524">
<time>2020-09-09T14:08:34Z</time>
</trkpt>
<trkpt lat="61.104669" lon="25.923533">
<time>2020-09-09T14:08:35Z</time>
</trkpt>
<trkpt lat="61.104691" lon="25.923531">
<time>2020-09-09T14:08:36Z</time>
</trkpt>
<trkpt lat="61.104703" lon="25.92352">
<time>2020-09-09T14:08:37Z</time>
</trkpt>
<trkpt lat="61.104704" lon="25.923515">
<time>2020-09-09T14:08:38Z</time>
</trkpt>
<trkpt lat="61.104694" lon="25.9235">
<time>2020-09-09T14:08:39Z</time>
</trkpt>
<trkpt lat="61.104679" lon="25.923474">
<time>2020-09-09T14:08:40Z</time>
</trkpt>
<trkpt lat="61.104662" lon="25.923428">
<time>2020-09-09T14:08:41Z</time>
</trkpt>
<trkpt lat="61.104644" lon="25.923366">
<time>2020-09-09T14:08:42Z</time>
</trkpt>
<trkpt lat="61.104634" lon="25.923287">
<time>2020-09-09T14:08:43Z</time>
</trkpt>
<trkpt lat="61.104621" lon="25.923198">
<time>2020-09-09T14:08:44Z</time>
</trkpt>
<trkpt lat="61.104607" lon="25.923102">
<time>2020-09-09T14:08:45Z</time>
</trkpt>
<trkpt lat="61.104584" lon="25.922991">
<time>2020-09-09T14:08:46Z</time>
</trkpt>
<trkpt lat="61.104563" lon="25.922874">
<time>2020-09-09T14:08:47Z</time>
</trkpt>
<trkpt lat="61.10454" lon="25.922761">
<time>2020-09-09T14:08:48Z</time>
</trkpt>
<trkpt lat="61.10452" lon="25.922646">
<time>2020-09-09T14:08:49Z</time>
</trkpt>
<trkpt lat="61.104511" lon="25.922535">
<time>2020-09-09T14:08:50Z</time>
</trkpt>
<trkpt lat="61.104505" lon="25.922415">
<time>2020-09-09T14:08:51Z</time>
</trkpt>
<trkpt lat="61.104504" lon="25.922303">
<time>2020-09-09T14:08:52Z</time>
</trkpt>
<trkpt lat="61.104492" lon="25.922171">
<time>2020-09-09T14:08:53Z</time>
</trkpt>
<trkpt lat="61.104478" lon="25.922039">
<time>2020-09-09T14:08:54Z</time>
</trkpt>
<trkpt lat="61.104464" lon="25.921924">
<time>2020-09-09T14:08:55Z</time>
</trkpt>
<trkpt lat="61.10445" lon="25.921834">
<time>2020-09-09T14:08:56Z</time>
</trkpt>
<trkpt lat="61.10444" lon="25.921801">
<time>2020-09-09T14:08:57Z</time>
</trkpt>
<trkpt lat="61.104443" lon="25.921784">
<time>2020-09-09T14:08:58Z</time>
</trkpt>
<trkpt lat="61.104449" lon="25.921803">
<time>2020-09-09T14:08:59Z</time>
</trkpt>
<trkpt lat="61.104452" lon="25.921826">
<time>2020-09-09T14:09:00Z</time>
</trkpt>
<trkpt lat="61.104454" lon="25.921859">
<time>2020-09-09T14:09:01Z</time>
</trkpt>
<trkpt lat="61.10446" lon="25.921908">
<time>2020-09-09T14:09:02Z</time>
</trkpt>
<trkpt lat="61.104462" lon="25.921968">
<time>2020-09-09T14:09:03Z</time>
</trkpt>
<trkpt lat="61.104467" lon="25.92204">
<time>2020-09-09T14:09:04Z</time>
</trkpt>
<trkpt lat="61.104473" lon="25.922129">
<time>2020-09-09T14:09:05Z</time>
</trkpt>
<trkpt lat="61.10448" lon="25.922213">
<time>2020-09-09T14:09:06Z</time>
</trkpt>
<trkpt lat="61.104485" lon="25.922295">
<time>2020-09-09T14:09:07Z</time>
</trkpt>
<trkpt lat="61.104487" lon="25.922388">
<time>2020-09-09T14:09:08Z</time>
</trkpt>
<trkpt lat="61.104495" lon="25.922498">
<time>2020-09-09T14:09:09Z</time>
</trkpt>
<trkpt lat="61.104508" lon="25.922616">
<time>2020-09-09T14:09:10Z</time>
</trkpt>
<trkpt lat="61.104522" lon="25.922732">
<time>2020-09-09T14:09:11Z</time>
</trkpt>
<trkpt lat="61.104544" lon="25.922845">
<time>2020-09-09T14:09:12Z</time>
</trkpt>
<trkpt lat="61.104569" lon="25.922951">
<time>2020-09-09T14:09:13Z</time>
</trkpt>
<trkpt lat="61.104593" lon="25.923049">
<time>2020-09-09T14:09:14Z</time>
</trkpt>
<trkpt lat="61.104615" lon="25.923155">
<time>2020-09-09T14:09:15Z</time>
</trkpt>
<trkpt lat="61.104642" lon="25.923264">
<time>2020-09-09T14:09:16Z</time>
</trkpt>
<trkpt lat="61.10468" lon="25.923373">
<time>2020-09-09T14:09:17Z</time>
</trkpt>
<trkpt lat="61.104718" lon="25.923463">
<time>2020-09-09T14:09:18Z</time>
</trkpt>
<trkpt lat="61.104762" lon="25.923541">
<time>2020-09-09T14:09:19Z</time>
</trkpt>
<trkpt lat="61.104798" lon="25.923613">
<time>2020-09-09T14:09:20Z</time>
</trkpt>
<trkpt lat="61.104843" lon="25.923675">
<time>2020-09-09T14:09:21Z</time>
</trkpt>
<trkpt lat="61.10489" lon="25.923745">
<time>2020-09-09T14:09:22Z</time>
</trkpt>
<trkpt lat="61.104933" lon="25.923827">
<time>2020-09-09T14:09:23Z</time>
</trkpt>
<trkpt lat="61.104975" lon="25.923925">
<time>2020-09-09T14:09:24Z</time>
</trkpt>
<trkpt lat="61.105007" lon="25.924023">
<time>2020-09-09T14:09:25Z</time>
</trkpt>
<trkpt lat="61.105035" lon="25.924126">
<time>2020-09-09T14:09:26Z</time>
</trkpt>
<trkpt lat="61.105055" lon="25.924229">
<time>2020-09-09T14:09:27Z</time>
</trkpt>
<trkpt lat="61.105073" lon="25.92428">
<time>2020-09-09T14:09:28Z</time>
</trkpt>
<trkpt lat="61.105094" lon="25.924281">
<time>2020-09-09T14:09:29Z</time>
</trkpt>
<trkpt lat="61.105117" lon="25.924269">
<time>2020-09-09T14:09:30Z</time>
</trkpt>
<trkpt lat="61.105145" lon="25.924253">
<time>2020-09-09T14:09:31Z</time>
</trkpt>
<trkpt lat="61.105158" lon="25.924235">
<time>2020-09-09T14:09:32Z</time>
</trkpt>
<trkpt lat="61.10516" lon="25.924244">
<time>2020-09-09T14:09:33Z</time>
</trkpt>
<trkpt lat="61.105163" lon="25.924278">
<time>2020-09-09T14:09:34Z</time>
</trkpt>
<trkpt lat="61.105154" lon="25.924328">
<time>2020-09-09T14:09:35Z</time>
</trkpt>
<trkpt lat="61.105136" lon="25.924371">
<time>2020-09-09T14:09:36Z</time>
</trkpt>
<trkpt lat="61.105117" lon="25.924408">
<time>2020-09-09T14:09:37Z</time>
</trkpt>
<trkpt lat="61.10509" lon="25.924436">
<time>2020-09-09T14:09:38Z</time>
</trkpt>
<trkpt lat="61.105061" lon="25.924449">
<time>2020-09-09T14:09:39Z</time>
</trkpt>
<trkpt lat="61.105025" lon="25.924478">
<time>2020-09-09T14:09:40Z</time>
</trkpt>
<trkpt lat="61.104982" lon="25.924505">
<time>2020-09-09T14:09:41Z</time>
</trkpt>
<trkpt lat="61.104936" lon="25.924523">
<time>2020-09-09T14:09:42Z</time>
</trkpt>
<trkpt lat="61.104887" lon="25.92454">
<time>2020-09-09T14:09:43Z</time>
</trkpt>
<trkpt lat="61.104832" lon="25.924556">
<time>2020-09-09T14:09:44Z</time>
</trkpt>
<trkpt lat="61.104781" lon="25.924577">
<time>2020-09-09T14:09:45Z</time>
</trkpt>
<trkpt lat="61.104738" lon="25.924619">
<time>2020-09-09T14:09:46Z</time>
</trkpt>
<trkpt lat="61.104703" lon="25.924674">
<time>2020-09-09T14:09:47Z</time>
</trkpt>
<trkpt lat="61.10468" lon="25.924762">
<time>2020-09-09T14:09:48Z</time>
</trkpt>
<trkpt lat="61.10467" lon="25.92488">
<time>2020-09-09T14:09:49Z</time>
</trkpt>
<trkpt lat="61.10467" lon="25.925012">
<time>2020-09-09T14:09:50Z</time>
</trkpt>
<trkpt lat="61.104685" lon="25.925147">
<time>2020-09-09T14:09:51Z</time>
</trkpt>
<trkpt lat="61.104698" lon="25.925294">
<time>2020-09-09T14:09:52Z</time>
</trkpt>
<trkpt lat="61.104712" lon="25.925449">
<time>2020-09-09T14:09:53Z</time>
</trkpt>
<trkpt lat="61.104728" lon="25.925603">
<time>2020-09-09T14:09:54Z</time>
</trkpt>
<trkpt lat="61.104744" lon="25.925762">
<time>2020-09-09T14:09:55Z</time>
</trkpt>
<trkpt lat="61.10476" lon="25.925927">
<time>2020-09-09T14:09:56Z</time>
</trkpt>
<trkpt lat="61.104776" lon="25.926093">
<time>2020-09-09T14:09:57Z</time>
</trkpt>
<trkpt lat="61.10479" lon="25.926255">
<time>2020-09-09T14:09:58Z</time>
</trkpt>
<trkpt lat="61.104801" lon="25.926419">
<time>2020-09-09T14:09:59Z</time>
</trkpt>
<trkpt lat="61.104813" lon="25.926582">
<time>2020-09-09T14:10:00Z</time>
</trkpt>
<trkpt lat="61.104829" lon="25.926737">
<time>2020-09-09T14:10:01Z</time>
</trkpt>
<trkpt lat="61.104845" lon="25.926886">
<time>2020-09-09T14:10:02Z</time>
</trkpt>
<trkpt lat="61.104854" lon="25.927028">
<time>2020-09-09T14:10:03Z</time>
</trkpt>
<trkpt lat="61.104839" lon="25.927155">
<time>2020-09-09T14:10:04Z</time>
</trkpt>
<trkpt lat="61.104789" lon="25.927236">
<time>2020-09-09T14:10:05Z</time>
</trkpt>
<trkpt lat="61.104715" lon="25.927277">
<time>2020-09-09T14:10:06Z</time>
</trkpt>
<trkpt lat="61.10463" lon="25.927315">
<time>2020-09-09T14:10:07Z</time>
</trkpt>
<trkpt lat="61.104543" lon="25.927352">
<time>2020-09-09T14:10:08Z</time>
</trkpt>
<trkpt lat="61.104455" lon="25.927392">
<time>2020-09-09T14:10:09Z</time>
</trkpt>
<trkpt lat="61.104365" lon="25.927435">
<time>2020-09-09T14:10:10Z</time>
</trkpt>
<trkpt lat="61.104277" lon="25.927474">
<time>2020-09-09T14:10:11Z</time>
</trkpt>
<trkpt lat="61.10419" lon="25.927517">
<time>2020-09-09T14:10:12Z</time>
</trkpt>
<trkpt lat="61.104103" lon="25.927559">
<time>2020-09-09T14:10:13Z</time>
</trkpt>
<trkpt lat="61.104017" lon="25.927601">
<time>2020-09-09T14:10:14Z</time>
</trkpt>
<trkpt lat="61.103933" lon="25.927648">
<time>2020-09-09T14:10:15Z</time>
</trkpt>
<trkpt lat="61.103852" lon="25.927678">
<time>2020-09-09T14:10:16Z</time>
</trkpt>
<trkpt lat="61.103779" lon="25.92768">
<time>2020-09-09T14:10:17Z</time>
</trkpt>
<trkpt lat="61.103714" lon="25.927625">
<time>2020-09-09T14:10:18Z</time>
</trkpt>
<trkpt lat="61.103673" lon="25.927507">
<time>2020-09-09T14:10:19Z</time>
</trkpt>
<trkpt lat="61.103649" lon="25.927359">
<time>2020-09-09T14:10:20Z</time>
</trkpt>
<trkpt lat="61.103636" lon="25.927198">
<time>2020-09-09T14:10:21Z</time>
</trkpt>
<trkpt lat="61.103626" lon="25.927047">
<time>2020-09-09T14:10:22Z</time>
</trkpt>
<trkpt lat="61.103635" lon="25.926933">
<time>2020-09-09T14:10:23Z</time>
</trkpt>
<trkpt lat="61.103654" lon="25.926865">
<time>2020-09-09T14:10:24Z</time>
</trkpt>
<trkpt lat="61.10366" lon="25.926799">
<time>2020-09-09T14:10:25Z</time>
</trkpt>
<trkpt lat="61.103644" lon="25.926766">
<time>2020-09-09T14:10:26Z</time>
</trkpt>
<trkpt lat="61.103618" lon="25.926783">
<time>2020-09-09T14:10:27Z</time>
</trkpt>
<trkpt lat="61.103602" lon="25.926832">
<time>2020-09-09T14:10:28Z</time>
</trkpt>
<trkpt lat="61.103596" lon="25.926914">
<time>2020-09-09T14:10:29Z</time>
</trkpt>
<trkpt lat="61.103607" lon="25.927014">
<time>2020-09-09T14:10:30Z</time>
</trkpt>
<trkpt lat="61.103623" lon="25.927121">
<time>2020-09-09T14:10:31Z</time>
</trkpt>
<trkpt lat="61.103642" lon="25.92724">
<time>2020-09-09T14:10:32Z</time>
</trkpt>
<trkpt lat="61.10366" lon="25.927365">
<time>2020-09-09T14:10:33Z</time>
</trkpt>
<trkpt lat="61.10368" lon="25.927486">
<time>2020-09-09T14:10:34Z</time>
</trkpt>
<trkpt lat="61.103705" lon="25.927601">
<time>2020-09-09T14:10:35Z</time>
</trkpt>
<trkpt lat="61.103732" lon="25.927709">
<time>2020-09-09T14:10:36Z</time>
</trkpt>
<trkpt lat="61.103758" lon="25.927801">
<time>2020-09-09T14:10:37Z</time>
</trkpt>
<trkpt lat="61.103784" lon="25.927882">
<time>2020-09-09T14:10:38Z</time>
</trkpt>
<trkpt lat="61.103801" lon="25.927967">
<time>2020-09-09T14:10:39Z</time>
</trkpt>
<trkpt lat="61.10381" lon="25.928049">
<time>2020-09-09T14:10:40Z</time>
</trkpt>
<trkpt lat="61.103805" lon="25.928139">
<time>2020-09-09T14:10:41Z</time>
</trkpt>
<trkpt lat="61.103802" lon="25.928225">
<time>2020-09-09T14:10:42Z</time>
</trkpt>
<trkpt lat="61.103798" lon="25.928309">
<time>2020-09-09T14:10:43Z</time>
</trkpt>
<trkpt lat="61.103799" lon="25.928383">
<time>2020-09-09T14:10:44Z</time>
</trkpt>
<trkpt lat="61.10379" lon="25.928457">
<time>2020-09-09T14:10:45Z</time>
</trkpt>
<trkpt lat="61.103781" lon="25.928523">
<time>2020-09-09T14:10:46Z</time>
</trkpt>
<trkpt lat="61.103766" lon="25.928579">
<time>2020-09-09T14:10:47Z</time>
</trkpt>
<trkpt lat="61.103739" lon="25.928628">
<time>2020-09-09T14:10:48Z</time>
</trkpt>
<trkpt lat="61.103707" lon="25.928674">
<time>2020-09-09T14:10:49Z</time>
</trkpt>
<trkpt lat="61.103685" lon="25.928726">
<time>2020-09-09T14:10:50Z</time>
</trkpt>
<trkpt lat="61.103678" lon="25.928787">
<time>2020-09-09T14:10:51Z</time>
</trkpt>
<trkpt lat="61.103677" lon="25.928866">
<time>2020-09-09T14:10:52Z</time>
</trkpt>
<trkpt lat="61.103682" lon="25.928955">
<time>2020-09-09T14:10:53Z</time>
</trkpt>
<trkpt lat="61.103683" lon="25.929048">
<time>2020-09-09T14:10:54Z</time>
</trkpt>
<trkpt lat="61.103676" lon="25.929144">
<time>2020-09-09T14:10:55Z</time>
</trkpt>
<trkpt lat="61.103659" lon="25.929244">
<time>2020-09-09T14:10:56Z</time>
</trkpt>
<trkpt lat="61.103646" lon="25.929337">
<time>2020-09-09T14:10:57Z</time>
</trkpt>
<trkpt lat="61.103638" lon="25.929437">
<time>2020-09-09T14:10:58Z</time>
</trkpt>
<trkpt lat="61.103643" lon="25.92954">
<time>2020-09-09T14:10:59Z</time>
</trkpt>
<trkpt lat="61.103652" lon="25.929634">
<time>2020-09-09T14:11:00Z</time>
</trkpt>
<trkpt lat="61.103664" lon="25.929707">
<time>2020-09-09T14:11:01Z</time>
</trkpt>
<trkpt lat="61.103679" lon="25.929781">
<time>2020-09-09T14:11:02Z</time>
</trkpt>
<trkpt lat="61.103689" lon="25.929879">
<time>2020-09-09T14:11:03Z</time>
</trkpt>
<trkpt lat="61.103704" lon="25.929992">
<time>2020-09-09T14:11:04Z</time>
</trkpt>
<trkpt lat="61.10372" lon="25.930115">
<time>2020-09-09T14:11:05Z</time>
</trkpt>
<trkpt lat="61.103739" lon="25.930245">
<time>2020-09-09T14:11:06Z</time>
</trkpt>
<trkpt lat="61.103758" lon="25.930383">
<time>2020-09-09T14:11:07Z</time>
</trkpt>
<trkpt lat="61.103772" lon="25.930524">
<time>2020-09-09T14:11:08Z</time>
</trkpt>
<trkpt lat="61.103788" lon="25.930671">
<time>2020-09-09T14:11:09Z</time>
</trkpt>
<trkpt lat="61.103805" lon="25.930808">
<time>2020-09-09T14:11:10Z</time>
</trkpt>
<trkpt lat="61.103827" lon="25.930965">
<time>2020-09-09T14:11:11Z</time>
</trkpt>
<trkpt lat="61.10385" lon="25.931111">
<time>2020-09-09T14:11:12Z</time>
</trkpt>
<trkpt lat="61.103869" lon="25.931264">
<time>2020-09-09T14:11:13Z</time>
</trkpt>
<trkpt lat="61.103886" lon="25.931412">
<time>2020-09-09T14:11:14Z</time>
</trkpt>
<trkpt lat="61.103875" lon="25.93156">
<time>2020-09-09T14:11:15Z</time>
</trkpt>
<trkpt lat="61.103842" lon="25.931688">
<time>2020-09-09T14:11:16Z</time>
</trkpt>
<trkpt lat="61.103805" lon="25.931774">
<time>2020-09-09T14:11:17Z</time>
</trkpt>
<trkpt lat="61.103748" lon="25.931836">
<time>2020-09-09T14:11:18Z</time>
</trkpt>
<trkpt lat="61.10368" lon="25.931877">
<time>2020-09-09T14:11:19Z</time>
</trkpt>
<trkpt lat="61.103602" lon="25.931915">
<time>2020-09-09T14:11:20Z</time>
</trkpt>
<trkpt lat="61.103516" lon="25.931947">
<time>2020-09-09T14:11:21Z</time>
</trkpt>
<trkpt lat="61.103421" lon="25.931987">
<time>2020-09-09T14:11:22Z</time>
</trkpt>
<trkpt lat="61.103327" lon="25.932045">
<time>2020-09-09T14:11:23Z</time>
</trkpt>
<trkpt lat="61.103227" lon="25.932096">
<time>2020-09-09T14:11:24Z</time>
</trkpt>
<trkpt lat="61.103125" lon="25.932134">
<time>2020-09-09T14:11:25Z</time>
</trkpt>
<trkpt lat="61.103021" lon="25.932172">
<time>2020-09-09T14:11:26Z</time>
</trkpt>
<trkpt lat="61.10292" lon="25.93222">
<time>2020-09-09T14:11:27Z</time>
</trkpt>
<trkpt lat="61.102818" lon="25.932268">
<time>2020-09-09T14:11:28Z</time>
</trkpt>
<trkpt lat="61.10272" lon="25.93233">
<time>2020-09-09T14:11:29Z</time>
</trkpt>
<trkpt lat="61.102624" lon="25.932412">
<time>2020-09-09T14:11:30Z</time>
</trkpt>
<trkpt lat="61.102537" lon="25.932532">
<time>2020-09-09T14:11:31Z</time>
</trkpt>
<trkpt lat="61.102456" lon="25.932674">
<time>2020-09-09T14:11:32Z</time>
</trkpt>
<trkpt lat="61.102383" lon="25.932829">
<time>2020-09-09T14:11:33Z</time>
</trkpt>
<trkpt lat="61.102317" lon="25.933004">
<time>2020-09-09T14:11:34Z</time>
</trkpt>
<trkpt lat="61.10226" lon="25.933199">
<time>2020-09-09T14:11:35Z</time>
</trkpt>
<trkpt lat="61.102215" lon="25.933412">
<time>2020-09-09T14:11:36Z</time>
</trkpt>
<trkpt lat="61.102184" lon="25.933629">
<time>2020-09-09T14:11:37Z</time>
</trkpt>
<trkpt lat="61.102158" lon="25.933845">
<time>2020-09-09T14:11:38Z</time>
</trkpt>
<trkpt lat="61.102149" lon="25.934051">
<time>2020-09-09T14:11:39Z</time>
</trkpt>
<trkpt lat="61.102156" lon="25.934245">
<time>2020-09-09T14:11:40Z</time>
</trkpt>
<trkpt lat="61.102173" lon="25.934432">
<time>2020-09-09T14:11:41Z</time>
</trkpt>
<trkpt lat="61.10219" lon="25.934611">
<time>2020-09-09T14:11:42Z</time>
</trkpt>
<trkpt lat="61.10221" lon="25.934786">
<time>2020-09-09T14:11:43Z</time>
</trkpt>
<trkpt lat="61.102226" lon="25.934916">
<time>2020-09-09T14:11:44Z</time>
</trkpt>
<trkpt lat="61.102242" lon="25.934968">
<time>2020-09-09T14:11:45Z</time>
</trkpt>
<trkpt lat="61.102258" lon="25.934951">
<time>2020-09-09T14:11:46Z</time>
</trkpt>
<trkpt lat="61.102274" lon="25.934886">
<time>2020-09-09T14:11:47Z</time>
</trkpt>
<trkpt lat="61.102278" lon="25.934801">
<time>2020-09-09T14:11:48Z</time>
</trkpt>
<trkpt lat="61.102264" lon="25.934682">
<time>2020-09-09T14:11:49Z</time>
</trkpt>
<trkpt lat="61.102242" lon="25.934538">
<time>2020-09-09T14:11:50Z</time>
</trkpt>
<trkpt lat="61.102215" lon="25.934409">
<time>2020-09-09T14:11:51Z</time>
</trkpt>
<trkpt lat="61.102198" lon="25.934263">
<time>2020-09-09T14:11:52Z</time>
</trkpt>
<trkpt lat="61.102186" lon="25.934109">
<time>2020-09-09T14:11:53Z</time>
</trkpt>
<trkpt lat="61.102177" lon="25.93395">
<time>2020-09-09T14:11:54Z</time>
</trkpt>
<trkpt lat="61.1022" lon="25.933793">
<time>2020-09-09T14:11:55Z</time>
</trkpt>
<trkpt lat="61.102214" lon="25.933642">
<time>2020-09-09T14:11:56Z</time>
</trkpt>
<trkpt lat="61.102237" lon="25.933482">
<time>2020-09-09T14:11:57Z</time>
</trkpt>
<trkpt lat="61.102259" lon="25.93333">
<time>2020-09-09T14:11:58Z</time>
</trkpt>
<trkpt lat="61.102283" lon="25.933187">
<time>2020-09-09T14:11:59Z</time>
</trkpt>
<trkpt lat="61.102311" lon="25.933049">
<time>2020-09-09T14:12:00Z</time>
</trkpt>
<trkpt lat="61.102348" lon="25.932921">
<time>2020-09-09T14:12:01Z</time>
</trkpt>
<trkpt lat="61.10239" lon="25.932807">
<time>2020-09-09T14:12:02Z</time>
</trkpt>
<trkpt lat="61.102427" lon="25.932693">
<time>2020-09-09T14:12:03Z</time>
</trkpt>
<trkpt lat="61.102453" lon="25.932565">
<time>2020-09-09T14:12:04Z</time>
</trkpt>
<trkpt lat="61.102458" lon="25.932441">
<time>2020-09-09T14:12:05Z</time>
</trkpt>
<trkpt lat="61.102454" lon="25.932319">
<time>2020-09-09T14:12:06Z</time>
</trkpt>
<trkpt lat="61.10243" lon="25.932197">
<time>2020-09-09T14:12:07Z</time>
</trkpt>
<trkpt lat="61.102413" lon="25.932068">
<time>2020-09-09T14:12:08Z</time>
</trkpt>
<trkpt lat="61.102398" lon="25.931921">
<time>2020-09-09T14:12:09Z</time>
</trkpt>
<trkpt lat="61.102378" lon="25.931771">
<time>2020-09-09T14:12:10Z</time>
</trkpt>
<trkpt lat="61.102359" lon="25.931624">
<time>2020-09-09T14:12:11Z</time>
</trkpt>
<trkpt lat="61.102342" lon="25.931476">
<time>2020-09-09T14:12:12Z</time>
</trkpt>
<trkpt lat="61.102323" lon="25.931323">
<time>2020-09-09T14:12:13Z</time>
</trkpt>
<trkpt lat="61.102292" lon="25.931175">
<time>2020-09-09T14:12:14Z</time>
</trkpt>
<trkpt lat="61.102264" lon="25.931024">
<time>2020-09-09T14:12:15Z</time>
</trkpt>
<trkpt lat="61.102258" lon="25.930875">
<time>2020-09-09T14:12:16Z</time>
</trkpt>
<trkpt lat="61.10223" lon="25.930767">
<time>2020-09-09T14:12:17Z</time>
</trkpt>
<trkpt lat="61.102186" lon="25.930716">
<time>2020-09-09T14:12:18Z</time>
</trkpt>
<trkpt lat="61.102142" lon="25.930712">
<time>2020-09-09T14:12:19Z</time>
</trkpt>
<trkpt lat="61.102108" lon="25.930735">
<time>2020-09-09T14:12:20Z</time>
</trkpt>
<trkpt lat="61.10209" lon="25.930774">
<time>2020-09-09T14:12:21Z</time>
</trkpt>
<trkpt lat="61.102088" lon="25.930807">
<time>2020-09-09T14:12:22Z</time>
</trkpt>
<trkpt lat="61.102096" lon="25.930831">
<time>2020-09-09T14:12:23Z</time>
</trkpt>
<trkpt lat="61.102108" lon="25.930814">
<time>2020-09-09T14:12:24Z</time>
</trkpt>
<trkpt lat="61.102127" lon="25.930771">
<time>2020-09-09T14:12:25Z</time>
</trkpt>
<trkpt lat="61.102157" lon="25.930715">
<time>2020-09-09T14:12:26Z</time>
</trkpt>
<trkpt lat="61.102197" lon="25.93065">
<time>2020-09-09T14:12:27Z</time>
</trkpt>
<trkpt lat="61.102246" lon="25.930582">
<time>2020-09-09T14:12:28Z</time>
</trkpt>
<trkpt lat="61.102299" lon="25.93054">
<time>2020-09-09T14:12:29Z</time>
</trkpt>
<trkpt lat="61.102347" lon="25.930517">
<time>2020-09-09T14:12:30Z</time>
</trkpt>
<trkpt lat="61.10239" lon="25.930495">
<time>2020-09-09T14:12:31Z</time>
</trkpt>
<trkpt lat="61.102429" lon="25.930471">
<time>2020-09-09T14:12:32Z</time>
</trkpt>
<trkpt lat="61.102462" lon="25.930455">
<time>2020-09-09T14:12:33Z</time>
</trkpt>
<trkpt lat="61.102492" lon="25.930441">
<time>2020-09-09T14:12:34Z</time>
</trkpt>
<trkpt lat="61.102517" lon="25.930425">
<time>2020-09-09T14:12:35Z</time>
</trkpt>
<trkpt lat="61.102538" lon="25.930409">
<time>2020-09-09T14:12:36Z</time>
</trkpt>
<trkpt lat="61.10256" lon="25.930401">
<time>2020-09-09T14:12:37Z</time>
</trkpt>
<trkpt lat="61.102577" lon="25.930398">
<time>2020-09-09T14:12:38Z</time>
</trkpt>
<trkpt lat="61.102596" lon="25.930388">
<time>2020-09-09T14:12:39Z</time>
</trkpt>
<trkpt lat="61.102613" lon="25.930377">
<time>2020-09-09T14:12:40Z</time>
</trkpt>
<trkpt lat="61.102636" lon="25.930365">
<time>2020-09-09T14:12:41Z</time>
</trkpt>
<trkpt lat="61.10266" lon="25.930352">
<time>2020-09-09T14:12:42Z</time>
</trkpt>
<trkpt lat="61.102685" lon="25.930341">
<time>2020-09-09T14:12:43Z</time>
</trkpt>
<trkpt lat="61.102706" lon="25.930327">
<time>2020-09-09T14:12:44Z</time>
</trkpt>
<trkpt lat="61.102724" lon="25.930305">
<time>2020-09-09T14:12:45Z</time>
</trkpt>
<trkpt lat="61.102742" lon="25.930291">
<time>2020-09-09T14:12:46Z</time>
</trkpt>
<trkpt lat="61.102752" lon="25.930278">
<time>2020-09-09T14:12:47Z</time>
</trkpt>
<trkpt lat="61.102766" lon="25.930271">
<time>2020-09-09T14:12:48Z</time>
</trkpt>
<trkpt lat="61.102783" lon="25.930265">
<time>2020-09-09T14:12:49Z</time>
</trkpt>
<trkpt lat="61.102798" lon="25.93026">
<time>2020-09-09T14:12:50Z</time>
</trkpt>
<trkpt lat="61.102815" lon="25.930246">
<time>2020-09-09T14:12:51Z</time>
</trkpt>
<trkpt lat="61.102835" lon="25.930229">
<time>2020-09-09T14:12:52Z</time>
</trkpt>
<trkpt lat="61.102852" lon="25.930217">
<time>2020-09-09T14:12:53Z</time>
</trkpt>
<trkpt lat="61.102866" lon="25.930205">
<time>2020-09-09T14:12:54Z</time>
</trkpt>
<trkpt lat="61.102879" lon="25.930194">
<time>2020-09-09T14:12:55Z</time>
</trkpt>
<trkpt lat="61.102892" lon="25.930178">
<time>2020-09-09T14:12:56Z</time>
</trkpt>
<trkpt lat="61.102912" lon="25.930166">
<time>2020-09-09T14:12:57Z</time>
</trkpt>
<trkpt lat="61.102945" lon="25.930167">
<time>2020-09-09T14:12:58Z</time>
</trkpt>
<trkpt lat="61.102978" lon="25.930195">
<time>2020-09-09T14:12:59Z</time>
</trkpt>
<trkpt lat="61.10301" lon="25.93023">
<time>2020-09-09T14:13:00Z</time>
</trkpt>
<trkpt lat="61.103041" lon="25.93027">
<time>2020-09-09T14:13:01Z</time>
</trkpt>
<trkpt lat="61.103059" lon="25.930308">
<time>2020-09-09T14:13:02Z</time>
</trkpt>
<trkpt lat="61.103067" lon="25.930346">
<time>2020-09-09T14:13:03Z</time>
</trkpt>
<trkpt lat="61.103075" lon="25.930395">
<time>2020-09-09T14:13:04Z</time>
</trkpt>
<trkpt lat="61.103083" lon="25.930448">
<time>2020-09-09T14:13:05Z</time>
</trkpt>
<trkpt lat="61.1031" lon="25.930508">
<time>2020-09-09T14:13:06Z</time>
</trkpt>
<trkpt lat="61.103117" lon="25.930569">
<time>2020-09-09T14:13:07Z</time>
</trkpt>
<trkpt lat="61.103138" lon="25.930639">
<time>2020-09-09T14:13:08Z</time>
</trkpt>
<trkpt lat="61.103161" lon="25.93071">
<time>2020-09-09T14:13:09Z</time>
</trkpt>
<trkpt lat="61.103182" lon="25.930785">
<time>2020-09-09T14:13:10Z</time>
</trkpt>
<trkpt lat="61.103202" lon="25.930872">
<time>2020-09-09T14:13:11Z</time>
</trkpt>
<trkpt lat="61.103214" lon="25.930969">
<time>2020-09-09T14:13:12Z</time>
</trkpt>
<trkpt lat="61.103218" lon="25.93106">
<time>2020-09-09T14:13:13Z</time>
</trkpt>
<trkpt lat="61.103224" lon="25.931117">
<time>2020-09-09T14:13:14Z</time>
</trkpt>
<trkpt lat="61.103243" lon="25.93115">
<time>2020-09-09T14:13:15Z</time>
</trkpt>
<trkpt lat="61.10327" lon="25.931157">
<time>2020-09-09T14:13:16Z</time>
</trkpt>
<trkpt lat="61.1033" lon="25.931156">
<time>2020-09-09T14:13:17Z</time>
</trkpt>
<trkpt lat="61.103326" lon="25.931145">
<time>2020-09-09T14:13:18Z</time>
</trkpt>
<trkpt lat="61.103364" lon="25.931127">
<time>2020-09-09T14:13:19Z</time>
</trkpt>
<trkpt lat="61.10342" lon="25.931115">
<time>2020-09-09T14:13:20Z</time>
</trkpt>
<trkpt lat="61.103473" lon="25.931094">
<time>2020-09-09T14:13:21Z</time>
</trkpt>
<trkpt lat="61.103525" lon="25.931051">
<time>2020-09-09T14:13:22Z</time>
</trkpt>
<trkpt lat="61.10358" lon="25.931012">
<time>2020-09-09T14:13:23Z</time>
</trkpt>
<trkpt lat="61.103622" lon="25.930941">
<time>2020-09-09T14:13:24Z</time>
</trkpt>
<trkpt lat="61.103666" lon="25.930865">
<time>2020-09-09T14:13:25Z</time>
</trkpt>
<trkpt lat="61.103704" lon="25.930784">
<time>2020-09-09T14:13:26Z</time>
</trkpt>
<trkpt lat="61.103728" lon="25.93069">
<time>2020-09-09T14:13:27Z</time>
</trkpt>
<trkpt lat="61.103742" lon="25.93058">
<time>2020-09-09T14:13:28Z</time>
</trkpt>
<trkpt lat="61.103737" lon="25.930472">
<time>2020-09-09T14:13:29Z</time>
</trkpt>
<trkpt lat="61.103729" lon="25.930363">
<time>2020-09-09T14:13:30Z</time>
</trkpt>
<trkpt lat="61.103723" lon="25.930249">
<time>2020-09-09T14:13:31Z</time>
</trkpt>
<trkpt lat="61.103715" lon="25.930124">
<time>2020-09-09T14:13:32Z</time>
</trkpt>
<trkpt lat="61.103701" lon="25.929987">
<time>2020-09-09T14:13:33Z</time>
</trkpt>
<trkpt lat="61.103699" lon="25.929861">
<time>2020-09-09T14:13:34Z</time>
</trkpt>
<trkpt lat="61.103721" lon="25.929753">
<time>2020-09-09T14:13:35Z</time>
</trkpt>
<trkpt lat="61.103769" lon="25.929669">
<time>2020-09-09T14:13:36Z</time>
</trkpt>
<trkpt lat="61.103834" lon="25.929623">
<time>2020-09-09T14:13:37Z</time>
</trkpt>
<trkpt lat="61.103899" lon="25.929585">
<time>2020-09-09T14:13:38Z</time>
</trkpt>
<trkpt lat="61.103972" lon="25.929547">
<time>2020-09-09T14:13:39Z</time>
</trkpt>
<trkpt lat="61.104053" lon="25.929532">
<time>2020-09-09T14:13:40Z</time>
</trkpt>
<trkpt lat="61.104141" lon="25.929539">
<time>2020-09-09T14:13:41Z</time>
</trkpt>
<trkpt lat="61.104231" lon="25.929553">
<time>2020-09-09T14:13:42Z</time>
</trkpt>
<trkpt lat="61.10432" lon="25.929577">
<time>2020-09-09T14:13:43Z</time>
</trkpt>
<trkpt lat="61.10441" lon="25.929612">
<time>2020-09-09T14:13:44Z</time>
</trkpt>
<trkpt lat="61.104494" lon="25.929645">
<time>2020-09-09T14:13:45Z</time>
</trkpt>
<trkpt lat="61.104575" lon="25.929672">
<time>2020-09-09T14:13:46Z</time>
</trkpt>
<trkpt lat="61.104652" lon="25.929701">
<time>2020-09-09T14:13:47Z</time>
</trkpt>
<trkpt lat="61.10473" lon="25.929723">
<time>2020-09-09T14:13:48Z</time>
</trkpt>
<trkpt lat="61.104808" lon="25.929745">
<time>2020-09-09T14:13:49Z</time>
</trkpt>
<trkpt lat="61.104889" lon="25.929765">
<time>2020-09-09T14:13:50Z</time>
</trkpt>
<trkpt lat="61.10497" lon="25.929785">
<time>2020-09-09T14:13:51Z</time>
</trkpt>
<trkpt lat="61.105055" lon="25.929804">
<time>2020-09-09T14:13:52Z</time>
</trkpt>
<trkpt lat="61.105143" lon="25.929824">
<time>2020-09-09T14:13:53Z</time>
</trkpt>
<trkpt lat="61.105233" lon="25.929845">
<time>2020-09-09T14:13:54Z</time>
</trkpt>
<trkpt lat="61.105328" lon="25.92986">
<time>2020-09-09T14:13:55Z</time>
</trkpt>
<trkpt lat="61.105426" lon="25.92987">
<time>2020-09-09T14:13:56Z</time>
</trkpt>
<trkpt lat="61.105524" lon="25.929874">
<time>2020-09-09T14:13:57Z</time>
</trkpt>
<trkpt lat="61.105615" lon="25.929881">
<time>2020-09-09T14:13:58Z</time>
</trkpt>
<trkpt lat="61.105694" lon="25.929881">
<time>2020-09-09T14:13:59Z</time>
</trkpt>
<trkpt lat="61.105756" lon="25.929863">
<time>2020-09-09T14:14:00Z</time>
</trkpt>
<trkpt lat="61.105792" lon="25.92982">
<time>2020-09-09T14:14:01Z</time>
</trkpt>
<trkpt lat="61.105798" lon="25.929757">
<time>2020-09-09T14:14:02Z</time>
</trkpt>
<trkpt lat="61.10578" lon="25.929681">
<time>2020-09-09T14:14:03Z</time>
</trkpt>
<trkpt lat="61.105763" lon="25.9296">
<time>2020-09-09T14:14:04Z</time>
</trkpt>
<trkpt lat="61.105778" lon="25.929525">
<time>2020-09-09T14:14:05Z</time>
</trkpt>
<trkpt lat="61.10582" lon="25.929469">
<time>2020-09-09T14:14:06Z</time>
</trkpt>
<trkpt lat="61.105867" lon="25.929418">
<time>2020-09-09T14:14:07Z</time>
</trkpt>
<trkpt lat="61.105921" lon="25.929362">
<time>2020-09-09T14:14:08Z</time>
</trkpt>
<trkpt lat="61.105992" lon="25.929305">
<time>2020-09-09T14:14:09Z</time>
</trkpt>
<trkpt lat="61.106057" lon="25.929249">
<time>2020-09-09T14:14:10Z</time>
</trkpt>
<trkpt lat="61.106122" lon="25.929198">
<time>2020-09-09T14:14:11Z</time>
</trkpt>
<trkpt lat="61.106175" lon="25.929138">
<time>2020-09-09T14:14:12Z</time>
</trkpt>
<trkpt lat="61.106221" lon="25.929065">
<time>2020-09-09T14:14:13Z</time>
</trkpt>
<trkpt lat="61.106262" lon="25.928969">
<time>2020-09-09T14:14:14Z</time>
</trkpt>
<trkpt lat="61.106287" lon="25.928849">
<time>2020-09-09T14:14:15Z</time>
</trkpt>
<trkpt lat="61.106295" lon="25.928713">
<time>2020-09-09T14:14:16Z</time>
</trkpt>
<trkpt lat="61.106295" lon="25.928572">
<time>2020-09-09T14:14:17Z</time>
</trkpt>
<trkpt lat="61.106292" lon="25.928432">
<time>2020-09-09T14:14:18Z</time>
</trkpt>
<trkpt lat="61.106288" lon="25.928289">
<time>2020-09-09T14:14:19Z</time>
</trkpt>
<trkpt lat="61.106281" lon="25.928143">
<time>2020-09-09T14:14:20Z</time>
</trkpt>
<trkpt lat="61.106276" lon="25.927992">
<time>2020-09-09T14:14:21Z</time>
</trkpt>
<trkpt lat="61.106268" lon="25.927836">
<time>2020-09-09T14:14:22Z</time>
</trkpt>
<trkpt lat="61.106264" lon="25.92768">
<time>2020-09-09T14:14:23Z</time>
</trkpt>
<trkpt lat="61.106257" lon="25.92753">
<time>2020-09-09T14:14:24Z</time>
</trkpt>
<trkpt lat="61.106252" lon="25.927379">
<time>2020-09-09T14:14:25Z</time>
</trkpt>
<trkpt lat="61.106241" lon="25.927233">
<time>2020-09-09T14:14:26Z</time>
</trkpt>
<trkpt lat="61.106225" lon="25.927083">
<time>2020-09-09T14:14:27Z</time>
</trkpt>
<trkpt lat="61.106214" lon="25.926933">
<time>2020-09-09T14:14:28Z</time>
</trkpt>
<trkpt lat="61.106232" lon="25.926813">
<time>2020-09-09T14:14:29Z</time>
</trkpt>
<trkpt lat="61.106277" lon="25.92673">
<time>2020-09-09T14:14:30Z</time>
</trkpt>
<trkpt lat="61.106342" lon="25.926685">
<time>2020-09-09T14:14:31Z</time>
</trkpt>
<trkpt lat="61.106413" lon="25.926664">
<time>2020-09-09T14:14:32Z</time>
</trkpt>
<trkpt lat="61.106486" lon="25.926647">
<time>2020-09-09T14:14:33Z</time>
</trkpt>
<trkpt lat="61.106558" lon="25.92664">
<time>2020-09-09T14:14:34Z</time>
</trkpt>
<trkpt lat="61.10663" lon="25.926637">
<time>2020-09-09T14:14:35Z</time>
</trkpt>
<trkpt lat="61.106698" lon="25.926631">
<time>2020-09-09T14:14:36Z</time>
</trkpt>
<trkpt lat="61.106765" lon="25.926617">
<time>2020-09-09T14:14:37Z</time>
</trkpt>
<trkpt lat="61.106831" lon="25.926581">
<time>2020-09-09T14:14:38Z</time>
</trkpt>
<trkpt lat="61.10689" lon="25.926507">
<time>2020-09-09T14:14:39Z</time>
</trkpt>
<trkpt lat="61.106936" lon="25.926404">
<time>2020-09-09T14:14:40Z</time>
</trkpt>
<trkpt lat="61.106972" lon="25.926281">
<time>2020-09-09T14:14:41Z</time>
</trkpt>
<trkpt lat="61.106994" lon="25.926147">
<time>2020-09-09T14:14:42Z</time>
</trkpt>
<trkpt lat="61.106997" lon="25.926009">
<time>2020-09-09T14:14:43Z</time>
</trkpt>
<trkpt lat="61.106993" lon="25.925863">
<time>2020-09-09T14:14:44Z</time>
</trkpt>
<trkpt lat="61.106988" lon="25.925726">
<time>2020-09-09T14:14:45Z</time>
</trkpt>
<trkpt lat="61.106975" lon="25.925584">
<time>2020-09-09T14:14:46Z</time>
</trkpt>
<trkpt lat="61.106966" lon="25.92545">
<time>2020-09-09T14:14:47Z</time>
</trkpt>
<trkpt lat="61.106958" lon="25.925311">
<time>2020-09-09T14:14:48Z</time>
</trkpt>
<trkpt lat="61.106967" lon="25.925176">
<time>2020-09-09T14:14:49Z</time>
</trkpt>
<trkpt lat="61.106993" lon="25.925073">
<time>2020-09-09T14:14:50Z</time>
</trkpt>
<trkpt lat="61.107039" lon="25.925005">
<time>2020-09-09T14:14:51Z</time>
</trkpt>
<trkpt lat="61.107095" lon="25.924958">
<time>2020-09-09T14:14:52Z</time>
</trkpt>
<trkpt lat="61.107163" lon="25.924931">
<time>2020-09-09T14:14:53Z</time>
</trkpt>
<trkpt lat="61.107231" lon="25.924918">
<time>2020-09-09T14:14:54Z</time>
</trkpt>
<trkpt lat="61.107299" lon="25.924916">
<time>2020-09-09T14:14:55Z</time>
</trkpt>
<trkpt lat="61.107368" lon="25.924922">
<time>2020-09-09T14:14:56Z</time>
</trkpt>
<trkpt lat="61.107436" lon="25.924921">
<time>2020-09-09T14:14:57Z</time>
</trkpt>
<trkpt lat="61.107503" lon="25.924911">
<time>2020-09-09T14:14:58Z</time>
</trkpt>
<trkpt lat="61.107571" lon="25.924888">
<time>2020-09-09T14:14:59Z</time>
</trkpt>
<trkpt lat="61.107636" lon="25.924865">
<time>2020-09-09T14:15:00Z</time>
</trkpt>
<trkpt lat="61.1077" lon="25.924839">
<time>2020-09-09T14:15:01Z</time>
</trkpt>
<trkpt lat="61.107758" lon="25.924814">
<time>2020-09-09T14:15:02Z</time>
</trkpt>
<trkpt lat="61.10782" lon="25.924791">
<time>2020-09-09T14:15:03Z</time>
</trkpt>
<trkpt lat="61.107883" lon="25.924775">
<time>2020-09-09T14:15:04Z</time>
</trkpt>
<trkpt lat="61.107944" lon="25.924765">
<time>2020-09-09T14:15:05Z</time>
</trkpt>
<trkpt lat="61.108005" lon="25.924749">
<time>2020-09-09T14:15:06Z</time>
</trkpt>
<trkpt lat="61.108068" lon="25.924724">
<time>2020-09-09T14:15:07Z</time>
</trkpt>
<trkpt lat="61.108123" lon="25.924666">
<time>2020-09-09T14:15:08Z</time>
</trkpt>
<trkpt lat="61.108155" lon="25.924561">
<time>2020-09-09T14:15:09Z</time>
</trkpt>
<trkpt lat="61.108165" lon="25.924433">
<time>2020-09-09T14:15:10Z</time>
</trkpt>
<trkpt lat="61.108162" lon="25.9243">
<time>2020-09-09T14:15:11Z</time>
</trkpt>
<trkpt lat="61.108155" lon="25.924169">
<time>2020-09-09T14:15:12Z</time>
</trkpt>
<trkpt lat="61.108142" lon="25.924028">
<time>2020-09-09T14:15:13Z</time>
</trkpt>
<trkpt lat="61.108132" lon="25.923886">
<time>2020-09-09T14:15:14Z</time>
</trkpt>
<trkpt lat="61.10812" lon="25.923736">
<time>2020-09-09T14:15:15Z</time>
</trkpt>
<trkpt lat="61.108108" lon="25.923588">
<time>2020-09-09T14:15:16Z</time>
</trkpt>
<trkpt lat="61.108097" lon="25.923444">
<time>2020-09-09T14:15:17Z</time>
</trkpt>
<trkpt lat="61.108086" lon="25.923305">
<time>2020-09-09T14:15:18Z</time>
</trkpt>
<trkpt lat="61.108072" lon="25.923166">
<time>2020-09-09T14:15:19Z</time>
</trkpt>
<trkpt lat="61.108059" lon="25.923037">
<time>2020-09-09T14:15:20Z</time>
</trkpt>
<trkpt lat="61.10805" lon="25.922913">
<time>2020-09-09T14:15:21Z</time>
</trkpt>
<trkpt lat="61.108041" lon="25.922818">
<time>2020-09-09T14:15:22Z</time>
</trkpt>
<trkpt lat="61.108027" lon="25.922775">
<time>2020-09-09T14:15:23Z</time>
</trkpt>
<trkpt lat="61.108012" lon="25.922774">
<time>2020-09-09T14:15:24Z</time>
</trkpt>
<trkpt lat="61.108002" lon="25.922812">
<time>2020-09-09T14:15:25Z</time>
</trkpt>
<trkpt lat="61.108011" lon="25.92285">
<time>2020-09-09T14:15:26Z</time>
</trkpt>
<trkpt lat="61.108024" lon="25.922852">
<time>2020-09-09T14:15:27Z</time>
</trkpt>
<trkpt lat="61.108033" lon="25.922821">
<time>2020-09-09T14:15:28Z</time>
</trkpt>
<trkpt lat="61.108037" lon="25.922776">
<time>2020-09-09T14:15:29Z</time>
</trkpt>
<trkpt lat="61.108041" lon="25.922732">
<time>2020-09-09T14:15:30Z</time>
</trkpt>
<trkpt lat="61.108043" lon="25.922698">
<time>2020-09-09T14:15:31Z</time>
</trkpt>
<trkpt lat="61.108044" lon="25.922674">
<time>2020-09-09T14:15:32Z</time>
</trkpt>
<trkpt lat="61.108049" lon="25.922643">
<time>2020-09-09T14:15:33Z</time>
</trkpt>
<trkpt lat="61.108048" lon="25.922604">
<time>2020-09-09T14:15:34Z</time>
</trkpt>
<trkpt lat="61.108049" lon="25.922568">
<time>2020-09-09T14:15:35Z</time>
</trkpt>
<trkpt lat="61.10805" lon="25.922549">
<time>2020-09-09T14:15:36Z</time>
</trkpt>
<trkpt lat="61.108049" lon="25.922536">
<time>2020-09-09T14:15:37Z</time>
</trkpt>
<trkpt lat="61.108045" lon="25.922525">
<time>2020-09-09T14:15:38Z</time>
</trkpt>
<trkpt lat="61.108049" lon="25.922514">
<time>2020-09-09T14:15:39Z</time>
</trkpt>
<trkpt lat="61.108049" lon="25.922502">
<time>2020-09-09T14:15:40Z</time>
</trkpt>
<trkpt lat="61.108051" lon="25.922496">
<time>2020-09-09T14:15:41Z</time>
</trkpt>
<trkpt lat="61.108049" lon="25.92248">
<time>2020-09-09T14:15:42Z</time>
</trkpt>
<trkpt lat="61.108049" lon="25.922452">
<time>2020-09-09T14:15:43Z</time>
</trkpt>
<trkpt lat="61.108048" lon="25.92242">
<time>2020-09-09T14:15:44Z</time>
</trkpt>
<trkpt lat="61.108047" lon="25.922385">
<time>2020-09-09T14:15:45Z</time>
</trkpt>
<trkpt lat="61.108048" lon="25.922355">
<time>2020-09-09T14:15:46Z</time>
</trkpt>
<trkpt lat="61.10805" lon="25.922334">
<time>2020-09-09T14:15:47Z</time>
</trkpt>
<trkpt lat="61.108053" lon="25.922319">
<time>2020-09-09T14:15:48Z</time>
</trkpt>
<trkpt lat="61.108059" lon="25.922308">
<time>2020-09-09T14:15:49Z</time>
</trkpt>
<trkpt lat="61.108064" lon="25.9223">
<time>2020-09-09T14:15:50Z</time>
</trkpt>
<trkpt lat="61.108078" lon="25.922285">
<time>2020-09-09T14:15:51Z</time>
</trkpt>
<trkpt lat="61.108096" lon="25.922267">
<time>2020-09-09T14:15:52Z</time>
</trkpt>
<trkpt lat="61.108112" lon="25.92224">
<time>2020-09-09T14:15:53Z</time>
</trkpt>
<trkpt lat="61.108122" lon="25.922218">
<time>2020-09-09T14:15:54Z</time>
</trkpt>
<trkpt lat="61.108127" lon="25.922214">
<time>2020-09-09T14:15:55Z</time>
</trkpt>
<trkpt lat="61.108126" lon="25.922214">
<time>2020-09-09T14:15:56Z</time>
</trkpt>
<trkpt lat="61.108126" lon="25.922216">
<time>2020-09-09T14:15:57Z</time>
</trkpt>
<trkpt lat="61.108124" lon="25.922227">
<time>2020-09-09T14:15:58Z</time>
</trkpt>
<trkpt lat="61.108124" lon="25.922259">
<time>2020-09-09T14:15:59Z</time>
</trkpt>
<trkpt lat="61.108125" lon="25.922303">
<time>2020-09-09T14:16:00Z</time>
</trkpt>
<trkpt lat="61.108129" lon="25.922342">
<time>2020-09-09T14:16:01Z</time>
</trkpt>
<trkpt lat="61.108138" lon="25.92238">
<time>2020-09-09T14:16:02Z</time>
</trkpt>
<trkpt lat="61.108144" lon="25.922417">
<time>2020-09-09T14:16:03Z</time>
</trkpt>
<trkpt lat="61.108142" lon="25.922452">
<time>2020-09-09T14:16:04Z</time>
</trkpt>
<trkpt lat="61.108141" lon="25.922483">
<time>2020-09-09T14:16:05Z</time>
</trkpt>
<trkpt lat="61.108144" lon="25.922502">
<time>2020-09-09T14:16:06Z</time>
</trkpt>
<trkpt lat="61.108149" lon="25.922505">
<time>2020-09-09T14:16:07Z</time>
</trkpt>
<trkpt lat="61.108159" lon="25.922515">
<time>2020-09-09T14:16:08Z</time>
</trkpt>
<trkpt lat="61.10817" lon="25.922521">
<time>2020-09-09T14:16:09Z</time>
</trkpt>
<trkpt lat="61.108184" lon="25.922524">
<time>2020-09-09T14:16:10Z</time>
</trkpt>
<trkpt lat="61.108196" lon="25.922527">
<time>2020-09-09T14:16:11Z</time>
</trkpt>
<trkpt lat="61.108206" lon="25.922536">
<time>2020-09-09T14:16:12Z</time>
</trkpt>
<trkpt lat="61.108215" lon="25.922552">
<time>2020-09-09T14:16:13Z</time>
</trkpt>
<trkpt lat="61.108226" lon="25.922573">
<time>2020-09-09T14:16:14Z</time>
</trkpt>
<trkpt lat="61.108243" lon="25.922596">
<time>2020-09-09T14:16:15Z</time>
</trkpt>
<trkpt lat="61.108262" lon="25.922619">
<time>2020-09-09T14:16:16Z</time>
</trkpt>
<trkpt lat="61.108278" lon="25.922635">
<time>2020-09-09T14:16:17Z</time>
</trkpt>
<trkpt lat="61.108293" lon="25.922651">
<time>2020-09-09T14:16:18Z</time>
</trkpt>
<trkpt lat="61.108308" lon="25.92267">
<time>2020-09-09T14:16:19Z</time>
</trkpt>
<trkpt lat="61.108327" lon="25.922696">
<time>2020-09-09T14:16:20Z</time>
</trkpt>
<trkpt lat="61.108342" lon="25.922714">
<time>2020-09-09T14:16:21Z</time>
</trkpt>
<trkpt lat="61.108358" lon="25.922727">
<time>2020-09-09T14:16:22Z</time>
</trkpt>
<trkpt lat="61.108373" lon="25.922742">
<time>2020-09-09T14:16:23Z</time>
</trkpt>
<trkpt lat="61.108391" lon="25.922766">
<time>2020-09-09T14:16:24Z</time>
</trkpt>
<trkpt lat="61.108415" lon="25.922796">
<time>2020-09-09T14:16:25Z</time>
</trkpt>
<trkpt lat="61.108439" lon="25.922824">
<time>2020-09-09T14:16:26Z</time>
</trkpt>
<trkpt lat="61.10846" lon="25.922849">
<time>2020-09-09T14:16:27Z</time>
</trkpt>
<trkpt lat="61.108481" lon="25.922869">
<time>2020-09-09T14:16:28Z</time>
</trkpt>
<trkpt lat="61.108497" lon="25.922879">
<time>2020-09-09T14:16:29Z</time>
</trkpt>
<trkpt lat="61.108513" lon="25.92289">
<time>2020-09-09T14:16:30Z</time>
</trkpt>
<trkpt lat="61.10853" lon="25.922898">
<time>2020-09-09T14:16:31Z</time>
</trkpt>
<trkpt lat="61.108551" lon="25.922908">
<time>2020-09-09T14:16:32Z</time>
</trkpt>
<trkpt lat="61.108573" lon="25.922913">
<time>2020-09-09T14:16:33Z</time>
</trkpt>
<trkpt lat="61.108596" lon="25.922929">
<time>2020-09-09T14:16:34Z</time>
</trkpt>
<trkpt lat="61.108616" lon="25.922949">
<time>2020-09-09T14:16:35Z</time>
</trkpt>
<trkpt lat="61.10863" lon="25.922968">
<time>2020-09-09T14:16:36Z</time>
</trkpt>
<trkpt lat="61.108647" lon="25.922987">
<time>2020-09-09T14:16:37Z</time>
</trkpt>
<trkpt lat="61.108672" lon="25.923005">
<time>2020-09-09T14:16:38Z</time>
</trkpt>
<trkpt lat="61.108696" lon="25.92302">
<time>2020-09-09T14:16:39Z</time>
</trkpt>
<trkpt lat="61.108715" lon="25.923031">
<time>2020-09-09T14:16:40Z</time>
</trkpt>
<trkpt lat="61.108738" lon="25.923054">
<time>2020-09-09T14:16:41Z</time>
</trkpt>
<trkpt lat="61.108763" lon="25.923071">
<time>2020-09-09T14:16:42Z</time>
</trkpt>
<trkpt lat="61.108782" lon="25.923087">
<time>2020-09-09T14:16:43Z</time>
</trkpt>
<trkpt lat="61.108794" lon="25.923101">
<time>2020-09-09T14:16:44Z</time>
</trkpt>
<trkpt lat="61.108818" lon="25.923126">
<time>2020-09-09T14:16:45Z</time>
</trkpt>
<trkpt lat="61.10884" lon="25.92315">
<time>2020-09-09T14:16:46Z</time>
</trkpt>
<trkpt lat="61.10886" lon="25.92316">
<time>2020-09-09T14:16:47Z</time>
</trkpt>
<trkpt lat="61.108873" lon="25.923163">
<time>2020-09-09T14:16:48Z</time>
</trkpt>
<trkpt lat="61.108882" lon="25.923164">
<time>2020-09-09T14:16:49Z</time>
</trkpt>
<trkpt lat="61.108891" lon="25.923163">
<time>2020-09-09T14:16:50Z</time>
</trkpt>
<trkpt lat="61.108899" lon="25.92317">
<time>2020-09-09T14:16:51Z</time>
</trkpt>
<trkpt lat="61.108907" lon="25.923174">
<time>2020-09-09T14:16:52Z</time>
</trkpt>
<trkpt lat="61.108924" lon="25.923184">
<time>2020-09-09T14:16:53Z</time>
</trkpt>
<trkpt lat="61.108944" lon="25.9232">
<time>2020-09-09T14:16:54Z</time>
</trkpt>
<trkpt lat="61.108967" lon="25.923215">
<time>2020-09-09T14:16:55Z</time>
</trkpt>
<trkpt lat="61.108992" lon="25.923225">
<time>2020-09-09T14:16:56Z</time>
</trkpt>
<trkpt lat="61.10901" lon="25.923226">
<time>2020-09-09T14:16:57Z</time>
</trkpt>
<trkpt lat="61.109027" lon="25.92322">
<time>2020-09-09T14:16:58Z</time>
</trkpt>
<trkpt lat="61.10905" lon="25.923214">
<time>2020-09-09T14:16:59Z</time>
</trkpt>
<trkpt lat="61.109072" lon="25.923213">
<time>2020-09-09T14:17:00Z</time>
</trkpt>
<trkpt lat="61.109092" lon="25.923214">
<time>2020-09-09T14:17:01Z</time>
</trkpt>
<trkpt lat="61.109109" lon="25.923216">
<time>2020-09-09T14:17:02Z</time>
</trkpt>
<trkpt lat="61.109126" lon="25.923236">
<time>2020-09-09T14:17:03Z</time>
</trkpt>
<trkpt lat="61.109156" lon="25.923266">
<time>2020-09-09T14:17:04Z</time>
</trkpt>
<trkpt lat="61.109182" lon="25.92329">
<time>2020-09-09T14:17:05Z</time>
</trkpt>
<trkpt lat="61.109201" lon="25.923293">
<time>2020-09-09T14:17:06Z</time>
</trkpt>
<trkpt lat="61.10922" lon="25.923289">
<time>2020-09-09T14:17:07Z</time>
</trkpt>
<trkpt lat="61.109244" lon="25.923294">
<time>2020-09-09T14:17:08Z</time>
</trkpt>
<trkpt lat="61.109264" lon="25.923303">
<time>2020-09-09T14:17:09Z</time>
</trkpt>
<trkpt lat="61.109294" lon="25.923331">
<time>2020-09-09T14:17:10Z</time>
</trkpt>
<trkpt lat="61.109324" lon="25.923358">
<time>2020-09-09T14:17:11Z</time>
</trkpt>
<trkpt lat="61.10935" lon="25.923385">
<time>2020-09-09T14:17:12Z</time>
</trkpt>
<trkpt lat="61.109372" lon="25.923412">
<time>2020-09-09T14:17:13Z</time>
</trkpt>
<trkpt lat="61.109392" lon="25.923432">
<time>2020-09-09T14:17:14Z</time>
</trkpt>
<trkpt lat="61.109403" lon="25.923446">
<time>2020-09-09T14:17:15Z</time>
</trkpt>
<trkpt lat="61.109412" lon="25.923456">
<time>2020-09-09T14:17:16Z</time>
</trkpt>
<trkpt lat="61.109422" lon="25.923469">
<time>2020-09-09T14:17:17Z</time>
</trkpt>
<trkpt lat="61.109438" lon="25.923489">
<time>2020-09-09T14:17:18Z</time>
</trkpt>
<trkpt lat="61.109452" lon="25.923511">
<time>2020-09-09T14:17:19Z</time>
</trkpt>
<trkpt lat="61.10946" lon="25.923528">
<time>2020-09-09T14:17:20Z</time>
</trkpt>
<trkpt lat="61.109466" lon="25.923549">
<time>2020-09-09T14:17:21Z</time>
</trkpt>
<trkpt lat="61.109471" lon="25.923566">
<time>2020-09-09T14:17:22Z</time>
</trkpt>
<trkpt lat="61.109476" lon="25.923591">
<time>2020-09-09T14:17:23Z</time>
</trkpt>
<trkpt lat="61.109476" lon="25.923623">
<time>2020-09-09T14:17:24Z</time>
</trkpt>
<trkpt lat="61.109473" lon="25.923646">
<time>2020-09-09T14:17:25Z</time>
</trkpt>
<trkpt lat="61.109472" lon="25.923663">
<time>2020-09-09T14:17:26Z</time>
</trkpt>
<trkpt lat="61.109469" lon="25.923683">
<time>2020-09-09T14:17:27Z</time>
</trkpt>
<trkpt lat="61.10947" lon="25.923711">
<time>2020-09-09T14:17:28Z</time>
</trkpt>
<trkpt lat="61.109476" lon="25.923738">
<time>2020-09-09T14:17:29Z</time>
</trkpt>
<trkpt lat="61.109488" lon="25.923764">
<time>2020-09-09T14:17:30Z</time>
</trkpt>
<trkpt lat="61.109495" lon="25.923789">
<time>2020-09-09T14:17:31Z</time>
</trkpt>
<trkpt lat="61.109501" lon="25.923816">
<time>2020-09-09T14:17:32Z</time>
</trkpt>
<trkpt lat="61.10951" lon="25.923842">
<time>2020-09-09T14:17:33Z</time>
</trkpt>
<trkpt lat="61.109517" lon="25.923863">
<time>2020-09-09T14:17:34Z</time>
</trkpt>
<trkpt lat="61.109522" lon="25.923883">
<time>2020-09-09T14:17:35Z</time>
</trkpt>
<trkpt lat="61.109526" lon="25.9239">
<time>2020-09-09T14:17:36Z</time>
</trkpt>
<trkpt lat="61.109529" lon="25.923919">
<time>2020-09-09T14:17:37Z</time>
</trkpt>
<trkpt lat="61.109531" lon="25.923933">
<time>2020-09-09T14:17:38Z</time>
</trkpt>
<trkpt lat="61.109538" lon="25.923953">
<time>2020-09-09T14:17:39Z</time>
</trkpt>
<trkpt lat="61.109551" lon="25.923969">
<time>2020-09-09T14:17:40Z</time>
</trkpt>
<trkpt lat="61.109568" lon="25.923976">
<time>2020-09-09T14:17:41Z</time>
</trkpt>
<trkpt lat="61.10959" lon="25.923974">
<time>2020-09-09T14:17:42Z</time>
</trkpt>
<trkpt lat="61.109615" lon="25.923975">
<time>2020-09-09T14:17:43Z</time>
</trkpt>
<trkpt lat="61.10965" lon="25.923986">
<time>2020-09-09T14:17:44Z</time>
</trkpt>
<trkpt lat="61.10969" lon="25.924007">
<time>2020-09-09T14:17:45Z</time>
</trkpt>
<trkpt lat="61.109727" lon="25.924037">
<time>2020-09-09T14:17:46Z</time>
</trkpt>
<trkpt lat="61.109761" lon="25.924089">
<time>2020-09-09T14:17:47Z</time>
</trkpt>
<trkpt lat="61.109781" lon="25.924158">
<time>2020-09-09T14:17:48Z</time>
</trkpt>
<trkpt lat="61.109776" lon="25.924261">
<time>2020-09-09T14:17:49Z</time>
</trkpt>
<trkpt lat="61.10977" lon="25.924381">
<time>2020-09-09T14:17:50Z</time>
</trkpt>
<trkpt lat="61.109759" lon="25.924496">
<time>2020-09-09T14:17:51Z</time>
</trkpt>
<trkpt lat="61.109756" lon="25.924612">
<time>2020-09-09T14:17:52Z</time>
</trkpt>
<trkpt lat="61.109753" lon="25.924732">
<time>2020-09-09T14:17:53Z</time>
</trkpt>
<trkpt lat="61.109745" lon="25.92485">
<time>2020-09-09T14:17:54Z</time>
</trkpt>
<trkpt lat="61.109731" lon="25.924962">
<time>2020-09-09T14:17:55Z</time>
</trkpt>
<trkpt lat="61.109716" lon="25.925066">
<time>2020-09-09T14:17:56Z</time>
</trkpt>
<trkpt lat="61.109704" lon="25.925163">
<time>2020-09-09T14:17:57Z</time>
</trkpt>
<trkpt lat="61.109692" lon="25.92526">
<time>2020-09-09T14:17:58Z</time>
</trkpt>
<trkpt lat="61.109678" lon="25.925357">
<time>2020-09-09T14:17:59Z</time>
</trkpt>
<trkpt lat="61.109658" lon="25.925467">
<time>2020-09-09T14:18:00Z</time>
</trkpt>
<trkpt lat="61.109641" lon="25.925578">
<time>2020-09-09T14:18:01Z</time>
</trkpt>
<trkpt lat="61.109617" lon="25.925675">
<time>2020-09-09T14:18:02Z</time>
</trkpt>
<trkpt lat="61.109598" lon="25.925778">
<time>2020-09-09T14:18:03Z</time>
</trkpt>
<trkpt lat="61.109581" lon="25.925882">
<time>2020-09-09T14:18:04Z</time>
</trkpt>
<trkpt lat="61.109565" lon="25.925991">
<time>2020-09-09T14:18:05Z</time>
</trkpt>
<trkpt lat="61.109543" lon="25.926089">
<time>2020-09-09T14:18:06Z</time>
</trkpt>
<trkpt lat="61.109524" lon="25.926199">
<time>2020-09-09T14:18:07Z</time>
</trkpt>
<trkpt lat="61.109503" lon="25.926305">
<time>2020-09-09T14:18:08Z</time>
</trkpt>
<trkpt lat="61.109482" lon="25.926409">
<time>2020-09-09T14:18:09Z</time>
</trkpt>
<trkpt lat="61.109456" lon="25.926505">
<time>2020-09-09T14:18:10Z</time>
</trkpt>
<trkpt lat="61.109429" lon="25.926604">
<time>2020-09-09T14:18:11Z</time>
</trkpt>
<trkpt lat="61.109405" lon="25.926708">
<time>2020-09-09T14:18:12Z</time>
</trkpt>
<trkpt lat="61.109384" lon="25.926816">
<time>2020-09-09T14:18:13Z</time>
</trkpt>
<trkpt lat="61.109356" lon="25.926917">
<time>2020-09-09T14:18:14Z</time>
</trkpt>
<trkpt lat="61.109329" lon="25.927012">
<time>2020-09-09T14:18:15Z</time>
</trkpt>
<trkpt lat="61.109299" lon="25.927108">
<time>2020-09-09T14:18:16Z</time>
</trkpt>
<trkpt lat="61.109273" lon="25.927194">
<time>2020-09-09T14:18:17Z</time>
</trkpt>
<trkpt lat="61.109246" lon="25.927274">
<time>2020-09-09T14:18:18Z</time>
</trkpt>
<trkpt lat="61.109212" lon="25.927347">
<time>2020-09-09T14:18:19Z</time>
</trkpt>
<trkpt lat="61.109181" lon="25.927405">
<time>2020-09-09T14:18:20Z</time>
</trkpt>
<trkpt lat="61.109139" lon="25.927469">
<time>2020-09-09T14:18:21Z</time>
</trkpt>
<trkpt lat="61.1091" lon="25.927537">
<time>2020-09-09T14:18:22Z</time>
</trkpt>
<trkpt lat="61.109054" lon="25.927603">
<time>2020-09-09T14:18:23Z</time>
</trkpt>
<trkpt lat="61.109007" lon="25.927662">
<time>2020-09-09T14:18:24Z</time>
</trkpt>
<trkpt lat="61.10896" lon="25.92772">
<time>2020-09-09T14:18:25Z</time>
</trkpt>
<trkpt lat="61.108915" lon="25.927773">
<time>2020-09-09T14:18:26Z</time>
</trkpt>
<trkpt lat="61.108876" lon="25.92783">
<time>2020-09-09T14:18:27Z</time>
</trkpt>
<trkpt lat="61.108835" lon="25.927886">
<time>2020-09-09T14:18:28Z</time>
</trkpt>
<trkpt lat="61.108794" lon="25.927945">
<time>2020-09-09T14:18:29Z</time>
</trkpt>
<trkpt lat="61.108751" lon="25.928015">
<time>2020-09-09T14:18:30Z</time>
</trkpt>
<trkpt lat="61.108706" lon="25.928092">
<time>2020-09-09T14:18:31Z</time>
</trkpt>
<trkpt lat="61.108667" lon="25.928182">
<time>2020-09-09T14:18:32Z</time>
</trkpt>
<trkpt lat="61.10862" lon="25.928265">
<time>2020-09-09T14:18:33Z</time>
</trkpt>
<trkpt lat="61.10857" lon="25.928338">
<time>2020-09-09T14:18:34Z</time>
</trkpt>
<trkpt lat="61.10852" lon="25.928389">
<time>2020-09-09T14:18:35Z</time>
</trkpt>
<trkpt lat="61.108474" lon="25.928422">
<time>2020-09-09T14:18:36Z</time>
</trkpt>
<trkpt lat="61.108428" lon="25.928449">
<time>2020-09-09T14:18:37Z</time>
</trkpt>
<trkpt lat="61.108384" lon="25.928461">
<time>2020-09-09T14:18:38Z</time>
</trkpt>
<trkpt lat="61.10834" lon="25.928466">
<time>2020-09-09T14:18:39Z</time>
</trkpt>
<trkpt lat="61.108297" lon="25.928468">
<time>2020-09-09T14:18:40Z</time>
</trkpt>
<trkpt lat="61.108258" lon="25.928466">
<time>2020-09-09T14:18:41Z</time>
</trkpt>
<trkpt lat="61.108221" lon="25.928467">
<time>2020-09-09T14:18:42Z</time>
</trkpt>
<trkpt lat="61.108183" lon="25.928465">
<time>2020-09-09T14:18:43Z</time>
</trkpt>
<trkpt lat="61.108141" lon="25.928455">
<time>2020-09-09T14:18:44Z</time>
</trkpt>
<trkpt lat="61.108098" lon="25.928445">
<time>2020-09-09T14:18:45Z</time>
</trkpt>
<trkpt lat="61.108059" lon="25.928432">
<time>2020-09-09T14:18:46Z</time>
</trkpt>
<trkpt lat="61.108026" lon="25.928424">
<time>2020-09-09T14:18:47Z</time>
</trkpt>
<trkpt lat="61.108001" lon="25.928424">
<time>2020-09-09T14:18:48Z</time>
</trkpt>
<trkpt lat="61.107986" lon="25.928436">
<time>2020-09-09T14:18:49Z</time>
</trkpt>
<trkpt lat="61.107978" lon="25.92844">
<time>2020-09-09T14:18:50Z</time>
</trkpt>
<trkpt lat="61.107975" lon="25.928436">
<time>2020-09-09T14:18:51Z</time>
</trkpt>
<trkpt lat="61.107975" lon="25.92843">
<time>2020-09-09T14:18:52Z</time>
</trkpt>
<trkpt lat="61.107975" lon="25.928425">
<time>2020-09-09T14:18:53Z</time>
</trkpt>
<trkpt lat="61.107974" lon="25.928421">
<time>2020-09-09T14:18:54Z</time>
</trkpt>
<trkpt lat="61.107973" lon="25.92842">
<time>2020-09-09T14:18:55Z</time>
</trkpt>
<trkpt lat="61.107973" lon="25.928419">
<time>2020-09-09T14:18:56Z</time>
</trkpt>
<trkpt lat="61.107972" lon="25.928415">
<time>2020-09-09T14:18:57Z</time>
</trkpt>
<trkpt lat="61.107962" lon="25.928409">
<time>2020-09-09T14:18:58Z</time>
</trkpt>
<trkpt lat="61.10795" lon="25.928403">
<time>2020-09-09T14:18:59Z</time>
</trkpt>
<trkpt lat="61.107929" lon="25.928394">
<time>2020-09-09T14:19:00Z</time>
</trkpt>
<trkpt lat="61.107902" lon="25.928382">
<time>2020-09-09T14:19:01Z</time>
</trkpt>
<trkpt lat="61.107863" lon="25.928369">
<time>2020-09-09T14:19:02Z</time>
</trkpt>
<trkpt lat="61.107822" lon="25.928363">
<time>2020-09-09T14:19:03Z</time>
</trkpt>
<trkpt lat="61.10778" lon="25.928356">
<time>2020-09-09T14:19:04Z</time>
</trkpt>
<trkpt lat="61.10774" lon="25.928347">
<time>2020-09-09T14:19:05Z</time>
</trkpt>
<trkpt lat="61.107695" lon="25.928359">
<time>2020-09-09T14:19:06Z</time>
</trkpt>
<trkpt lat="61.10765" lon="25.928394">
<time>2020-09-09T14:19:07Z</time>
</trkpt>
<trkpt lat="61.107605" lon="25.928438">
<time>2020-09-09T14:19:08Z</time>
</trkpt>
<trkpt lat="61.107563" lon="25.928495">
<time>2020-09-09T14:19:09Z</time>
</trkpt>
<trkpt lat="61.10753" lon="25.928552">
<time>2020-09-09T14:19:10Z</time>
</trkpt>
<trkpt lat="61.107505" lon="25.928588">
<time>2020-09-09T14:19:11Z</time>
</trkpt>
<trkpt lat="61.107489" lon="25.928615">
<time>2020-09-09T14:19:12Z</time>
</trkpt>
<trkpt lat="61.107474" lon="25.928637">
<time>2020-09-09T14:19:13Z</time>
</trkpt>
<trkpt lat="61.107466" lon="25.928663">
<time>2020-09-09T14:19:14Z</time>
</trkpt>
<trkpt lat="61.107462" lon="25.928697">
<time>2020-09-09T14:19:15Z</time>
</trkpt>
<trkpt lat="61.107465" lon="25.928749">
<time>2020-09-09T14:19:16Z</time>
</trkpt>
<trkpt lat="61.107459" lon="25.928825">
<time>2020-09-09T14:19:17Z</time>
</trkpt>
<trkpt lat="61.10745" lon="25.928906">
<time>2020-09-09T14:19:18Z</time>
</trkpt>
<trkpt lat="61.107425" lon="25.928987">
<time>2020-09-09T14:19:19Z</time>
</trkpt>
<trkpt lat="61.107386" lon="25.929056">
<time>2020-09-09T14:19:20Z</time>
</trkpt>
<trkpt lat="61.107335" lon="25.929144">
<time>2020-09-09T14:19:21Z</time>
</trkpt>
<trkpt lat="61.107295" lon="25.929251">
<time>2020-09-09T14:19:22Z</time>
</trkpt>
<trkpt lat="61.107278" lon="25.929384">
<time>2020-09-09T14:19:23Z</time>
</trkpt>
<trkpt lat="61.107281" lon="25.929522">
<time>2020-09-09T14:19:24Z</time>
</trkpt>
<trkpt lat="61.107294" lon="25.929658">
<time>2020-09-09T14:19:25Z</time>
</trkpt>
<trkpt lat="61.10731" lon="25.929778">
<time>2020-09-09T14:19:26Z</time>
</trkpt>
<trkpt lat="61.107324" lon="25.929897">
<time>2020-09-09T14:19:27Z</time>
</trkpt>
<trkpt lat="61.107339" lon="25.930021">
<time>2020-09-09T14:19:28Z</time>
</trkpt>
<trkpt lat="61.107355" lon="25.930156">
<time>2020-09-09T14:19:29Z</time>
</trkpt>
<trkpt lat="61.107366" lon="25.930283">
<time>2020-09-09T14:19:30Z</time>
</trkpt>
<trkpt lat="61.107371" lon="25.930414">
<time>2020-09-09T14:19:31Z</time>
</trkpt>
<trkpt lat="61.107372" lon="25.93054">
<time>2020-09-09T14:19:32Z</time>
</trkpt>
<trkpt lat="61.107378" lon="25.930647">
<time>2020-09-09T14:19:33Z</time>
</trkpt>
<trkpt lat="61.107375" lon="25.93074">
<time>2020-09-09T14:19:34Z</time>
</trkpt>
<trkpt lat="61.107361" lon="25.930819">
<time>2020-09-09T14:19:35Z</time>
</trkpt>
<trkpt lat="61.107332" lon="25.930917">
<time>2020-09-09T14:19:36Z</time>
</trkpt>
<trkpt lat="61.107292" lon="25.931021">
<time>2020-09-09T14:19:37Z</time>
</trkpt>
<trkpt lat="61.107245" lon="25.931124">
<time>2020-09-09T14:19:38Z</time>
</trkpt>
<trkpt lat="61.107194" lon="25.931236">
<time>2020-09-09T14:19:39Z</time>
</trkpt>
<trkpt lat="61.107139" lon="25.931345">
<time>2020-09-09T14:19:40Z</time>
</trkpt>
<trkpt lat="61.107087" lon="25.931442">
<time>2020-09-09T14:19:41Z</time>
</trkpt>
<trkpt lat="61.107031" lon="25.931545">
<time>2020-09-09T14:19:42Z</time>
</trkpt>
<trkpt lat="61.106977" lon="25.931653">
<time>2020-09-09T14:19:43Z</time>
</trkpt>
<trkpt lat="61.106941" lon="25.931778">
<time>2020-09-09T14:19:44Z</time>
</trkpt>
<trkpt lat="61.106937" lon="25.931909">
<time>2020-09-09T14:19:45Z</time>
</trkpt>
<trkpt lat="61.10696" lon="25.932039">
<time>2020-09-09T14:19:46Z</time>
</trkpt>
<trkpt lat="61.107001" lon="25.932161">
<time>2020-09-09T14:19:47Z</time>
</trkpt>
<trkpt lat="61.107053" lon="25.932276">
<time>2020-09-09T14:19:48Z</time>
</trkpt>
<trkpt lat="61.107111" lon="25.932388">
<time>2020-09-09T14:19:49Z</time>
</trkpt>
<trkpt lat="61.107173" lon="25.932506">
<time>2020-09-09T14:19:50Z</time>
</trkpt>
<trkpt lat="61.107234" lon="25.932627">
<time>2020-09-09T14:19:51Z</time>
</trkpt>
<trkpt lat="61.107297" lon="25.932736">
<time>2020-09-09T14:19:52Z</time>
</trkpt>
<trkpt lat="61.107373" lon="25.932824">
<time>2020-09-09T14:19:53Z</time>
</trkpt>
<trkpt lat="61.107451" lon="25.932904">
<time>2020-09-09T14:19:54Z</time>
</trkpt>
<trkpt lat="61.107527" lon="25.932992">
<time>2020-09-09T14:19:55Z</time>
</trkpt>
<trkpt lat="61.107603" lon="25.933086">
<time>2020-09-09T14:19:56Z</time>
</trkpt>
<trkpt lat="61.107685" lon="25.933182">
<time>2020-09-09T14:19:57Z</time>
</trkpt>
<trkpt lat="61.10777" lon="25.933276">
<time>2020-09-09T14:19:58Z</time>
</trkpt>
<trkpt lat="61.10786" lon="25.933365">
<time>2020-09-09T14:19:59Z</time>
</trkpt>
<trkpt lat="61.107958" lon="25.933438">
<time>2020-09-09T14:20:00Z</time>
</trkpt>
<trkpt lat="61.108047" lon="25.933523">
<time>2020-09-09T14:20:01Z</time>
</trkpt>
<trkpt lat="61.108143" lon="25.933595">
<time>2020-09-09T14:20:02Z</time>
</trkpt>
<trkpt lat="61.108231" lon="25.93368">
<time>2020-09-09T14:20:03Z</time>
</trkpt>
<trkpt lat="61.108313" lon="25.933775">
<time>2020-09-09T14:20:04Z</time>
</trkpt>
<trkpt lat="61.10839" lon="25.933883">
<time>2020-09-09T14:20:05Z</time>
</trkpt>
<trkpt lat="61.108458" lon="25.933997">
<time>2020-09-09T14:20:06Z</time>
</trkpt>
<trkpt lat="61.108519" lon="25.934116">
<time>2020-09-09T14:20:07Z</time>
</trkpt>
<trkpt lat="61.108581" lon="25.934245">
<time>2020-09-09T14:20:08Z</time>
</trkpt>
<trkpt lat="61.108645" lon="25.934381">
<time>2020-09-09T14:20:09Z</time>
</trkpt>
<trkpt lat="61.108699" lon="25.934521">
<time>2020-09-09T14:20:10Z</time>
</trkpt>
<trkpt lat="61.108748" lon="25.934642">
<time>2020-09-09T14:20:11Z</time>
</trkpt>
<trkpt lat="61.108791" lon="25.934765">
<time>2020-09-09T14:20:12Z</time>
</trkpt>
<trkpt lat="61.108825" lon="25.934889">
<time>2020-09-09T14:20:13Z</time>
</trkpt>
<trkpt lat="61.108857" lon="25.935012">
<time>2020-09-09T14:20:14Z</time>
</trkpt>
<trkpt lat="61.108883" lon="25.935135">
<time>2020-09-09T14:20:15Z</time>
</trkpt>
<trkpt lat="61.10891" lon="25.935255">
<time>2020-09-09T14:20:16Z</time>
</trkpt>
<trkpt lat="61.108936" lon="25.935379">
<time>2020-09-09T14:20:17Z</time>
</trkpt>
<trkpt lat="61.108964" lon="25.935502">
<time>2020-09-09T14:20:18Z</time>
</trkpt>
<trkpt lat="61.108994" lon="25.935619">
<time>2020-09-09T14:20:19Z</time>
</trkpt>
<trkpt lat="61.109021" lon="25.935729">
<time>2020-09-09T14:20:20Z</time>
</trkpt>
<trkpt lat="61.109044" lon="25.935823">
<time>2020-09-09T14:20:21Z</time>
</trkpt>
<trkpt lat="61.109062" lon="25.935861">
<time>2020-09-09T14:20:22Z</time>
</trkpt>
<trkpt lat="61.109071" lon="25.935838">
<time>2020-09-09T14:20:23Z</time>
</trkpt>
<trkpt lat="61.109067" lon="25.935796">
<time>2020-09-09T14:20:24Z</time>
</trkpt>
<trkpt lat="61.109045" lon="25.935743">
<time>2020-09-09T14:20:25Z</time>
</trkpt>
<trkpt lat="61.10902" lon="25.935682">
<time>2020-09-09T14:20:26Z</time>
</trkpt>
<trkpt lat="61.108987" lon="25.935583">
<time>2020-09-09T14:20:27Z</time>
</trkpt>
<trkpt lat="61.108958" lon="25.935477">
<time>2020-09-09T14:20:28Z</time>
</trkpt>
<trkpt lat="61.108931" lon="25.935355">
<time>2020-09-09T14:20:29Z</time>
</trkpt>
<trkpt lat="61.108903" lon="25.935219">
<time>2020-09-09T14:20:30Z</time>
</trkpt>
<trkpt lat="61.108874" lon="25.935083">
<time>2020-09-09T14:20:31Z</time>
</trkpt>
<trkpt lat="61.108841" lon="25.934954">
<time>2020-09-09T14:20:32Z</time>
</trkpt>
<trkpt lat="61.108806" lon="25.93485">
<time>2020-09-09T14:20:33Z</time>
</trkpt>
<trkpt lat="61.108771" lon="25.934798">
<time>2020-09-09T14:20:34Z</time>
</trkpt>
<trkpt lat="61.10874" lon="25.934803">
<time>2020-09-09T14:20:35Z</time>
</trkpt>
<trkpt lat="61.108719" lon="25.934857">
<time>2020-09-09T14:20:36Z</time>
</trkpt>
<trkpt lat="61.108721" lon="25.934941">
<time>2020-09-09T14:20:37Z</time>
</trkpt>
<trkpt lat="61.108727" lon="25.935057">
<time>2020-09-09T14:20:38Z</time>
</trkpt>
<trkpt lat="61.108733" lon="25.935193">
<time>2020-09-09T14:20:39Z</time>
</trkpt>
<trkpt lat="61.108722" lon="25.935339">
<time>2020-09-09T14:20:40Z</time>
</trkpt>
<trkpt lat="61.108697" lon="25.935474">
<time>2020-09-09T14:20:41Z</time>
</trkpt>
<trkpt lat="61.108662" lon="25.935602">
<time>2020-09-09T14:20:42Z</time>
</trkpt>
<trkpt lat="61.10862" lon="25.935719">
<time>2020-09-09T14:20:43Z</time>
</trkpt>
<trkpt lat="61.108568" lon="25.935829">
<time>2020-09-09T14:20:44Z</time>
</trkpt>
<trkpt lat="61.108506" lon="25.935901">
<time>2020-09-09T14:20:45Z</time>
</trkpt>
<trkpt lat="61.108442" lon="25.93592">
<time>2020-09-09T14:20:46Z</time>
</trkpt>
<trkpt lat="61.108375" lon="25.935915">
<time>2020-09-09T14:20:47Z</time>
</trkpt>
<trkpt lat="61.108305" lon="25.935888">
<time>2020-09-09T14:20:48Z</time>
</trkpt>
<trkpt lat="61.108242" lon="25.935855">
<time>2020-09-09T14:20:49Z</time>
</trkpt>
<trkpt lat="61.1082" lon="25.935833">
<time>2020-09-09T14:20:50Z</time>
</trkpt>
<trkpt lat="61.108165" lon="25.935831">
<time>2020-09-09T14:20:51Z</time>
</trkpt>
<trkpt lat="61.108136" lon="25.935873">
<time>2020-09-09T14:20:52Z</time>
</trkpt>
<trkpt lat="61.108114" lon="25.935942">
<time>2020-09-09T14:20:53Z</time>
</trkpt>
<trkpt lat="61.108093" lon="25.936026">
<time>2020-09-09T14:20:54Z</time>
</trkpt>
<trkpt lat="61.108081" lon="25.9361">
<time>2020-09-09T14:20:55Z</time>
</trkpt>
<trkpt lat="61.10808" lon="25.936134">
<time>2020-09-09T14:20:56Z</time>
</trkpt>
<trkpt lat="61.108086" lon="25.936132">
<time>2020-09-09T14:20:57Z</time>
</trkpt>
<trkpt lat="61.108088" lon="25.936092">
<time>2020-09-09T14:20:58Z</time>
</trkpt>
<trkpt lat="61.108091" lon="25.936042">
<time>2020-09-09T14:20:59Z</time>
</trkpt>
<trkpt lat="61.108101" lon="25.935968">
<time>2020-09-09T14:21:00Z</time>
</trkpt>
<trkpt lat="61.108118" lon="25.935889">
<time>2020-09-09T14:21:01Z</time>
</trkpt>
<trkpt lat="61.108145" lon="25.935807">
<time>2020-09-09T14:21:02Z</time>
</trkpt>
<trkpt lat="61.108173" lon="25.935748">
<time>2020-09-09T14:21:03Z</time>
</trkpt>
<trkpt lat="61.108193" lon="25.935725">
<time>2020-09-09T14:21:04Z</time>
</trkpt>
<trkpt lat="61.108207" lon="25.935723">
<time>2020-09-09T14:21:05Z</time>
</trkpt>
<trkpt lat="61.108222" lon="25.935735">
<time>2020-09-09T14:21:06Z</time>
</trkpt>
<trkpt lat="61.108246" lon="25.935766">
<time>2020-09-09T14:21:07Z</time>
</trkpt>
<trkpt lat="61.10828" lon="25.935804">
<time>2020-09-09T14:21:08Z</time>
</trkpt>
<trkpt lat="61.108315" lon="25.935832">
<time>2020-09-09T14:21:09Z</time>
</trkpt>
<trkpt lat="61.108346" lon="25.935851">
<time>2020-09-09T14:21:10Z</time>
</trkpt>
<trkpt lat="61.108381" lon="25.935857">
<time>2020-09-09T14:21:11Z</time>
</trkpt>
<trkpt lat="61.108423" lon="25.935856">
<time>2020-09-09T14:21:12Z</time>
</trkpt>
<trkpt lat="61.10847" lon="25.935837">
<time>2020-09-09T14:21:13Z</time>
</trkpt>
<trkpt lat="61.10852" lon="25.935797">
<time>2020-09-09T14:21:14Z</time>
</trkpt>
<trkpt lat="61.108567" lon="25.935724">
<time>2020-09-09T14:21:15Z</time>
</trkpt>
<trkpt lat="61.10861" lon="25.935631">
<time>2020-09-09T14:21:16Z</time>
</trkpt>
<trkpt lat="61.108654" lon="25.935535">
<time>2020-09-09T14:21:17Z</time>
</trkpt>
<trkpt lat="61.108698" lon="25.935408">
<time>2020-09-09T14:21:18Z</time>
</trkpt>
<trkpt lat="61.108736" lon="25.935265">
<time>2020-09-09T14:21:19Z</time>
</trkpt>
<trkpt lat="61.108753" lon="25.935101">
<time>2020-09-09T14:21:20Z</time>
</trkpt>
<trkpt lat="61.10875" lon="25.934936">
<time>2020-09-09T14:21:21Z</time>
</trkpt>
<trkpt lat="61.108739" lon="25.934783">
<time>2020-09-09T14:21:22Z</time>
</trkpt>
<trkpt lat="61.108724" lon="25.934626">
<time>2020-09-09T14:21:23Z</time>
</trkpt>
<trkpt lat="61.108698" lon="25.93447">
<time>2020-09-09T14:21:24Z</time>
</trkpt>
<trkpt lat="61.108657" lon="25.934331">
<time>2020-09-09T14:21:25Z</time>
</trkpt>
<trkpt lat="61.108605" lon="25.9342">
<time>2020-09-09T14:21:26Z</time>
</trkpt>
<trkpt lat="61.108543" lon="25.934063">
<time>2020-09-09T14:21:27Z</time>
</trkpt>
<trkpt lat="61.108474" lon="25.933926">
<time>2020-09-09T14:21:28Z</time>
</trkpt>
<trkpt lat="61.108402" lon="25.933806">
<time>2020-09-09T14:21:29Z</time>
</trkpt>
<trkpt lat="61.108325" lon="25.933697">
<time>2020-09-09T14:21:30Z</time>
</trkpt>
<trkpt lat="61.108238" lon="25.933607">
<time>2020-09-09T14:21:31Z</time>
</trkpt>
<trkpt lat="61.108151" lon="25.933513">
<time>2020-09-09T14:21:32Z</time>
</trkpt>
<trkpt lat="61.108069" lon="25.933428">
<time>2020-09-09T14:21:33Z</time>
</trkpt>
<trkpt lat="61.107991" lon="25.93336">
<time>2020-09-09T14:21:34Z</time>
</trkpt>
<trkpt lat="61.107916" lon="25.933291">
<time>2020-09-09T14:21:35Z</time>
</trkpt>
<trkpt lat="61.107842" lon="25.933221">
<time>2020-09-09T14:21:36Z</time>
</trkpt>
<trkpt lat="61.107773" lon="25.93314">
<time>2020-09-09T14:21:37Z</time>
</trkpt>
<trkpt lat="61.107707" lon="25.933064">
<time>2020-09-09T14:21:38Z</time>
</trkpt>
<trkpt lat="61.107641" lon="25.932991">
<time>2020-09-09T14:21:39Z</time>
</trkpt>
<trkpt lat="61.107573" lon="25.932926">
<time>2020-09-09T14:21:40Z</time>
</trkpt>
<trkpt lat="61.107507" lon="25.932858">
<time>2020-09-09T14:21:41Z</time>
</trkpt>
<trkpt lat="61.10744" lon="25.932785">
<time>2020-09-09T14:21:42Z</time>
</trkpt>
<trkpt lat="61.107377" lon="25.932704">
<time>2020-09-09T14:21:43Z</time>
</trkpt>
<trkpt lat="61.107319" lon="25.932617">
<time>2020-09-09T14:21:44Z</time>
</trkpt>
<trkpt lat="61.107263" lon="25.93253">
<time>2020-09-09T14:21:45Z</time>
</trkpt>
<trkpt lat="61.107209" lon="25.932437">
<time>2020-09-09T14:21:46Z</time>
</trkpt>
<trkpt lat="61.107156" lon="25.932336">
<time>2020-09-09T14:21:47Z</time>
</trkpt>
<trkpt lat="61.107108" lon="25.932225">
<time>2020-09-09T14:21:48Z</time>
</trkpt>
<trkpt lat="61.107063" lon="25.932105">
<time>2020-09-09T14:21:49Z</time>
</trkpt>
<trkpt lat="61.107013" lon="25.931981">
<time>2020-09-09T14:21:50Z</time>
</trkpt>
<trkpt lat="61.10696" lon="25.931856">
<time>2020-09-09T14:21:51Z</time>
</trkpt>
<trkpt lat="61.106908" lon="25.931722">
<time>2020-09-09T14:21:52Z</time>
</trkpt>
<trkpt lat="61.10686" lon="25.931587">
<time>2020-09-09T14:21:53Z</time>
</trkpt>
<trkpt lat="61.106816" lon="25.931448">
<time>2020-09-09T14:21:54Z</time>
</trkpt>
<trkpt lat="61.106774" lon="25.931309">
<time>2020-09-09T14:21:55Z</time>
</trkpt>
<trkpt lat="61.106731" lon="25.931169">
<time>2020-09-09T14:21:56Z</time>
</trkpt>
<trkpt lat="61.106694" lon="25.931028">
<time>2020-09-09T14:21:57Z</time>
</trkpt>
<trkpt lat="61.106655" lon="25.930887">
<time>2020-09-09T14:21:58Z</time>
</trkpt>
<trkpt lat="61.106624" lon="25.930734">
<time>2020-09-09T14:21:59Z</time>
</trkpt>
<trkpt lat="61.106605" lon="25.930575">
<time>2020-09-09T14:22:00Z</time>
</trkpt>
<trkpt lat="61.106587" lon="25.930415">
<time>2020-09-09T14:22:01Z</time>
</trkpt>
<trkpt lat="61.106567" lon="25.930262">
<time>2020-09-09T14:22:02Z</time>
</trkpt>
<trkpt lat="61.106543" lon="25.930114">
<time>2020-09-09T14:22:03Z</time>
</trkpt>
<trkpt lat="61.106515" lon="25.929973">
<time>2020-09-09T14:22:04Z</time>
</trkpt>
<trkpt lat="61.106482" lon="25.929837">
<time>2020-09-09T14:22:05Z</time>
</trkpt>
<trkpt lat="61.106444" lon="25.929703">
<time>2020-09-09T14:22:06Z</time>
</trkpt>
<trkpt lat="61.106415" lon="25.929559">
<time>2020-09-09T14:22:07Z</time>
</trkpt>
<trkpt lat="61.106379" lon="25.929418">
<time>2020-09-09T14:22:08Z</time>
</trkpt>
<trkpt lat="61.106345" lon="25.929291">
<time>2020-09-09T14:22:09Z</time>
</trkpt>
<trkpt lat="61.10632" lon="25.929191">
<time>2020-09-09T14:22:10Z</time>
</trkpt>
<trkpt lat="61.106309" lon="25.929126">
<time>2020-09-09T14:22:11Z</time>
</trkpt>
<trkpt lat="61.106318" lon="25.929075">
<time>2020-09-09T14:22:12Z</time>
</trkpt>
<trkpt lat="61.106339" lon="25.929029">
<time>2020-09-09T14:22:13Z</time>
</trkpt>
<trkpt lat="61.106381" lon="25.929011">
<time>2020-09-09T14:22:14Z</time>
</trkpt>
<trkpt lat="61.106431" lon="25.929011">
<time>2020-09-09T14:22:15Z</time>
</trkpt>
<trkpt lat="61.106484" lon="25.929005">
<time>2020-09-09T14:22:16Z</time>
</trkpt>
<trkpt lat="61.106538" lon="25.929008">
<time>2020-09-09T14:22:17Z</time>
</trkpt>
<trkpt lat="61.106594" lon="25.929013">
<time>2020-09-09T14:22:18Z</time>
</trkpt>
<trkpt lat="61.106651" lon="25.929017">
<time>2020-09-09T14:22:19Z</time>
</trkpt>
<trkpt lat="61.106711" lon="25.929027">
<time>2020-09-09T14:22:20Z</time>
</trkpt>
<trkpt lat="61.106776" lon="25.929046">
<time>2020-09-09T14:22:21Z</time>
</trkpt>
<trkpt lat="61.106842" lon="25.929069">
<time>2020-09-09T14:22:22Z</time>
</trkpt>
<trkpt lat="61.106906" lon="25.929074">
<time>2020-09-09T14:22:23Z</time>
</trkpt>
<trkpt lat="61.106971" lon="25.929081">
<time>2020-09-09T14:22:24Z</time>
</trkpt>
<trkpt lat="61.107037" lon="25.929085">
<time>2020-09-09T14:22:25Z</time>
</trkpt>
<trkpt lat="61.107099" lon="25.929079">
<time>2020-09-09T14:22:26Z</time>
</trkpt>
<trkpt lat="61.107155" lon="25.929045">
<time>2020-09-09T14:22:27Z</time>
</trkpt>
<trkpt lat="61.107197" lon="25.92897">
<time>2020-09-09T14:22:28Z</time>
</trkpt>
<trkpt lat="61.107219" lon="25.928873">
<time>2020-09-09T14:22:29Z</time>
</trkpt>
<trkpt lat="61.107234" lon="25.928766">
<time>2020-09-09T14:22:30Z</time>
</trkpt>
<trkpt lat="61.107236" lon="25.928657">
<time>2020-09-09T14:22:31Z</time>
</trkpt>
<trkpt lat="61.107227" lon="25.928539">
<time>2020-09-09T14:22:32Z</time>
</trkpt>
<trkpt lat="61.107217" lon="25.928428">
<time>2020-09-09T14:22:33Z</time>
</trkpt>
<trkpt lat="61.107203" lon="25.928315">
<time>2020-09-09T14:22:34Z</time>
</trkpt>
<trkpt lat="61.107186" lon="25.928202">
<time>2020-09-09T14:22:35Z</time>
</trkpt>
<trkpt lat="61.107171" lon="25.928094">
<time>2020-09-09T14:22:36Z</time>
</trkpt>
<trkpt lat="61.10716" lon="25.927992">
<time>2020-09-09T14:22:37Z</time>
</trkpt>
<trkpt lat="61.107149" lon="25.92789">
<time>2020-09-09T14:22:38Z</time>
</trkpt>
<trkpt lat="61.107135" lon="25.927784">
<time>2020-09-09T14:22:39Z</time>
</trkpt>
<trkpt lat="61.107119" lon="25.927673">
<time>2020-09-09T14:22:40Z</time>
</trkpt>
<trkpt lat="61.107105" lon="25.927564">
<time>2020-09-09T14:22:41Z</time>
</trkpt>
<trkpt lat="61.107091" lon="25.927465">
<time>2020-09-09T14:22:42Z</time>
</trkpt>
<trkpt lat="61.107077" lon="25.927374">
<time>2020-09-09T14:22:43Z</time>
</trkpt>
<trkpt lat="61.107061" lon="25.92728">
<time>2020-09-09T14:22:44Z</time>
</trkpt>
<trkpt lat="61.107048" lon="25.927196">
<time>2020-09-09T14:22:45Z</time>
</trkpt>
<trkpt lat="61.107043" lon="25.927128">
<time>2020-09-09T14:22:46Z</time>
</trkpt>
<trkpt lat="61.107036" lon="25.927071">
<time>2020-09-09T14:22:47Z</time>
</trkpt>
<trkpt lat="61.10703" lon="25.927021">
<time>2020-09-09T14:22:48Z</time>
</trkpt>
<trkpt lat="61.107028" lon="25.926968">
<time>2020-09-09T14:22:49Z</time>
</trkpt>
<trkpt lat="61.107018" lon="25.926938">
<time>2020-09-09T14:22:50Z</time>
</trkpt>
<trkpt lat="61.107009" lon="25.92695">
<time>2020-09-09T14:22:51Z</time>
</trkpt>
<trkpt lat="61.10701" lon="25.926996">
<time>2020-09-09T14:22:52Z</time>
</trkpt>
<trkpt lat="61.107027" lon="25.927036">
<time>2020-09-09T14:22:53Z</time>
</trkpt>
<trkpt lat="61.107053" lon="25.927049">
<time>2020-09-09T14:22:54Z</time>
</trkpt>
<trkpt lat="61.107078" lon="25.927045">
<time>2020-09-09T14:22:55Z</time>
</trkpt>
<trkpt lat="61.107094" lon="25.927034">
<time>2020-09-09T14:22:56Z</time>
</trkpt>
<trkpt lat="61.107113" lon="25.927011">
<time>2020-09-09T14:22:57Z</time>
</trkpt>
<trkpt lat="61.107131" lon="25.926986">
<time>2020-09-09T14:22:58Z</time>
</trkpt>
<trkpt lat="61.107151" lon="25.926957">
<time>2020-09-09T14:22:59Z</time>
</trkpt>
<trkpt lat="61.107171" lon="25.926931">
<time>2020-09-09T14:23:00Z</time>
</trkpt>
<trkpt lat="61.107183" lon="25.9269">
<time>2020-09-09T14:23:01Z</time>
</trkpt>
<trkpt lat="61.107192" lon="25.926869">
<time>2020-09-09T14:23:02Z</time>
</trkpt>
<trkpt lat="61.107202" lon="25.926835">
<time>2020-09-09T14:23:03Z</time>
</trkpt>
<trkpt lat="61.10722" lon="25.926807">
<time>2020-09-09T14:23:04Z</time>
</trkpt>
<trkpt lat="61.10724" lon="25.926777">
<time>2020-09-09T14:23:05Z</time>
</trkpt>
<trkpt lat="61.107266" lon="25.926755">
<time>2020-09-09T14:23:06Z</time>
</trkpt>
<trkpt lat="61.107297" lon="25.926734">
<time>2020-09-09T14:23:07Z</time>
</trkpt>
<trkpt lat="61.107325" lon="25.92672">
<time>2020-09-09T14:23:08Z</time>
</trkpt>
<trkpt lat="61.107355" lon="25.926699">
<time>2020-09-09T14:23:09Z</time>
</trkpt>
<trkpt lat="61.10738" lon="25.926675">
<time>2020-09-09T14:23:10Z</time>
</trkpt>
<trkpt lat="61.107402" lon="25.926659">
<time>2020-09-09T14:23:11Z</time>
</trkpt>
<trkpt lat="61.107422" lon="25.926654">
<time>2020-09-09T14:23:12Z</time>
</trkpt>
<trkpt lat="61.107442" lon="25.92667">
<time>2020-09-09T14:23:13Z</time>
</trkpt>
<trkpt lat="61.107456" lon="25.926701">
<time>2020-09-09T14:23:14Z</time>
</trkpt>
<trkpt lat="61.107475" lon="25.92674">
<time>2020-09-09T14:23:15Z</time>
</trkpt>
<trkpt lat="61.107485" lon="25.926781">
<time>2020-09-09T14:23:16Z</time>
</trkpt>
<trkpt lat="61.107497" lon="25.926833">
<time>2020-09-09T14:23:17Z</time>
</trkpt>
<trkpt lat="61.107509" lon="25.926881">
<time>2020-09-09T14:23:18Z</time>
</trkpt>
<trkpt lat="61.107519" lon="25.926929">
<time>2020-09-09T14:23:19Z</time>
</trkpt>
<trkpt lat="61.107533" lon="25.926973">
<time>2020-09-09T14:23:20Z</time>
</trkpt>
<trkpt lat="61.107541" lon="25.927011">
<time>2020-09-09T14:23:21Z</time>
</trkpt>
<trkpt lat="61.107549" lon="25.927049">
<time>2020-09-09T14:23:22Z</time>
</trkpt>
<trkpt lat="61.107556" lon="25.927082">
<time>2020-09-09T14:23:23Z</time>
</trkpt>
<trkpt lat="61.107565" lon="25.927112">
<time>2020-09-09T14:23:24Z</time>
</trkpt>
<trkpt lat="61.107572" lon="25.927132">
<time>2020-09-09T14:23:25Z</time>
</trkpt>
<trkpt lat="61.107581" lon="25.927144">
<time>2020-09-09T14:23:26Z</time>
</trkpt>
<trkpt lat="61.107587" lon="25.927151">
<time>2020-09-09T14:23:27Z</time>
</trkpt>
<trkpt lat="61.107592" lon="25.927159">
<time>2020-09-09T14:23:28Z</time>
</trkpt>
<trkpt lat="61.107601" lon="25.927177">
<time>2020-09-09T14:23:29Z</time>
</trkpt>
<trkpt lat="61.107614" lon="25.927195">
<time>2020-09-09T14:23:30Z</time>
</trkpt>
<trkpt lat="61.107626" lon="25.927191">
<time>2020-09-09T14:23:31Z</time>
</trkpt>
<trkpt lat="61.10764" lon="25.927183">
<time>2020-09-09T14:23:32Z</time>
</trkpt>
<trkpt lat="61.107659" lon="25.927178">
<time>2020-09-09T14:23:33Z</time>
</trkpt>
<trkpt lat="61.107687" lon="25.927171">
<time>2020-09-09T14:23:34Z</time>
</trkpt>
<trkpt lat="61.107717" lon="25.92716">
<time>2020-09-09T14:23:35Z</time>
</trkpt>
<trkpt lat="61.107752" lon="25.927137">
<time>2020-09-09T14:23:36Z</time>
</trkpt>
<trkpt lat="61.10779" lon="25.927114">
<time>2020-09-09T14:23:37Z</time>
</trkpt>
<trkpt lat="61.107837" lon="25.927099">
<time>2020-09-09T14:23:38Z</time>
</trkpt>
<trkpt lat="61.107888" lon="25.927095">
<time>2020-09-09T14:23:39Z</time>
</trkpt>
<trkpt lat="61.107938" lon="25.927085">
<time>2020-09-09T14:23:40Z</time>
</trkpt>
<trkpt lat="61.10799" lon="25.927085">
<time>2020-09-09T14:23:41Z</time>
</trkpt>
<trkpt lat="61.108037" lon="25.927081">
<time>2020-09-09T14:23:42Z</time>
</trkpt>
<trkpt lat="61.108088" lon="25.927085">
<time>2020-09-09T14:23:43Z</time>
</trkpt>
<trkpt lat="61.108139" lon="25.927084">
<time>2020-09-09T14:23:44Z</time>
</trkpt>
<trkpt lat="61.108189" lon="25.927098">
<time>2020-09-09T14:23:45Z</time>
</trkpt>
<trkpt lat="61.108225" lon="25.927124">
<time>2020-09-09T14:23:46Z</time>
</trkpt>
<trkpt lat="61.108255" lon="25.927173">
<time>2020-09-09T14:23:47Z</time>
</trkpt>
<trkpt lat="61.108268" lon="25.927229">
<time>2020-09-09T14:23:48Z</time>
</trkpt>
<trkpt lat="61.10828" lon="25.927289">
<time>2020-09-09T14:23:49Z</time>
</trkpt>
<trkpt lat="61.108306" lon="25.927362">
<time>2020-09-09T14:23:50Z</time>
</trkpt>
<trkpt lat="61.108316" lon="25.927468">
<time>2020-09-09T14:23:51Z</time>
</trkpt>
<trkpt lat="61.108317" lon="25.927579">
<time>2020-09-09T14:23:52Z</time>
</trkpt>
<trkpt lat="61.108306" lon="25.927696">
<time>2020-09-09T14:23:53Z</time>
</trkpt>
<trkpt lat="61.108312" lon="25.927821">
<time>2020-09-09T14:23:54Z</time>
</trkpt>
<trkpt lat="61.108325" lon="25.927939">
<time>2020-09-09T14:23:55Z</time>
</trkpt>
<trkpt lat="61.108341" lon="25.928038">
<time>2020-09-09T14:23:56Z</time>
</trkpt>
<trkpt lat="61.108367" lon="25.92812">
<time>2020-09-09T14:23:57Z</time>
</trkpt>
<trkpt lat="61.108396" lon="25.928199">
<time>2020-09-09T14:23:58Z</time>
</trkpt>
<trkpt lat="61.108426" lon="25.928277">
<time>2020-09-09T14:23:59Z</time>
</trkpt>
<trkpt lat="61.10845" lon="25.928341">
<time>2020-09-09T14:24:00Z</time>
</trkpt>
<trkpt lat="61.108472" lon="25.92841">
<time>2020-09-09T14:24:01Z</time>
</trkpt>
<trkpt lat="61.108494" lon="25.928489">
<time>2020-09-09T14:24:02Z</time>
</trkpt>
<trkpt lat="61.10852" lon="25.928579">
<time>2020-09-09T14:24:03Z</time>
</trkpt>
<trkpt lat="61.108535" lon="25.92867">
<time>2020-09-09T14:24:04Z</time>
</trkpt>
<trkpt lat="61.108561" lon="25.928763">
<time>2020-09-09T14:24:05Z</time>
</trkpt>
<trkpt lat="61.10859" lon="25.928863">
<time>2020-09-09T14:24:06Z</time>
</trkpt>
<trkpt lat="61.108617" lon="25.928967">
<time>2020-09-09T14:24:07Z</time>
</trkpt>
<trkpt lat="61.108648" lon="25.929075">
<time>2020-09-09T14:24:08Z</time>
</trkpt>
<trkpt lat="61.108683" lon="25.92917">
<time>2020-09-09T14:24:09Z</time>
</trkpt>
<trkpt lat="61.108729" lon="25.929244">
<time>2020-09-09T14:24:10Z</time>
</trkpt>
<trkpt lat="61.108774" lon="25.929296">
<time>2020-09-09T14:24:11Z</time>
</trkpt>
<trkpt lat="61.108817" lon="25.92937">
<time>2020-09-09T14:24:12Z</time>
</trkpt>
<trkpt lat="61.10885" lon="25.929468">
<time>2020-09-09T14:24:13Z</time>
</trkpt>
<trkpt lat="61.108869" lon="25.929577">
<time>2020-09-09T14:24:14Z</time>
</trkpt>
<trkpt lat="61.108876" lon="25.929685">
<time>2020-09-09T14:24:15Z</time>
</trkpt>
<trkpt lat="61.108877" lon="25.929811">
<time>2020-09-09T14:24:16Z</time>
</trkpt>
<trkpt lat="61.108872" lon="25.929947">
<time>2020-09-09T14:24:17Z</time>
</trkpt>
<trkpt lat="61.108847" lon="25.930079">
<time>2020-09-09T14:24:18Z</time>
</trkpt>
<trkpt lat="61.108803" lon="25.930194">
<time>2020-09-09T14:24:19Z</time>
</trkpt>
<trkpt lat="61.10875" lon="25.930273">
<time>2020-09-09T14:24:20Z</time>
</trkpt>
<trkpt lat="61.108683" lon="25.930329">
<time>2020-09-09T14:24:21Z</time>
</trkpt>
<trkpt lat="61.108608" lon="25.930365">
<time>2020-09-09T14:24:22Z</time>
</trkpt>
<trkpt lat="61.108534" lon="25.930386">
<time>2020-09-09T14:24:23Z</time>
</trkpt>
<trkpt lat="61.108456" lon="25.930401">
<time>2020-09-09T14:24:24Z</time>
</trkpt>
<trkpt lat="61.108378" lon="25.930416">
<time>2020-09-09T14:24:25Z</time>
</trkpt>
<trkpt lat="61.108301" lon="25.930431">
<time>2020-09-09T14:24:26Z</time>
</trkpt>
<trkpt lat="61.108226" lon="25.930449">
<time>2020-09-09T14:24:27Z</time>
</trkpt>
<trkpt lat="61.108149" lon="25.930474">
<time>2020-09-09T14:24:28Z</time>
</trkpt>
<trkpt lat="61.108071" lon="25.930494">
<time>2020-09-09T14:24:29Z</time>
</trkpt>
<trkpt lat="61.10799" lon="25.930527">
<time>2020-09-09T14:24:30Z</time>
</trkpt>
<trkpt lat="61.107922" lon="25.930559">
<time>2020-09-09T14:24:31Z</time>
</trkpt>
<trkpt lat="61.107878" lon="25.930634">
<time>2020-09-09T14:24:32Z</time>
</trkpt>
<trkpt lat="61.10786" lon="25.93074">
<time>2020-09-09T14:24:33Z</time>
</trkpt>
<trkpt lat="61.107869" lon="25.930837">
<time>2020-09-09T14:24:34Z</time>
</trkpt>
<trkpt lat="61.107903" lon="25.930926">
<time>2020-09-09T14:24:35Z</time>
</trkpt>
<trkpt lat="61.107957" lon="25.930989">
<time>2020-09-09T14:24:36Z</time>
</trkpt>
<trkpt lat="61.108019" lon="25.93104">
<time>2020-09-09T14:24:37Z</time>
</trkpt>
<trkpt lat="61.108068" lon="25.931101">
<time>2020-09-09T14:24:38Z</time>
</trkpt>
<trkpt lat="61.108098" lon="25.931157">
<time>2020-09-09T14:24:39Z</time>
</trkpt>
<trkpt lat="61.108098" lon="25.931205">
<time>2020-09-09T14:24:40Z</time>
</trkpt>
<trkpt lat="61.108081" lon="25.931249">
<time>2020-09-09T14:24:41Z</time>
</trkpt>
<trkpt lat="61.108061" lon="25.931308">
<time>2020-09-09T14:24:42Z</time>
</trkpt>
<trkpt lat="61.108042" lon="25.931385">
<time>2020-09-09T14:24:43Z</time>
</trkpt>
<trkpt lat="61.108021" lon="25.93147">
<time>2020-09-09T14:24:44Z</time>
</trkpt>
<trkpt lat="61.108003" lon="25.931556">
<time>2020-09-09T14:24:45Z</time>
</trkpt>
<trkpt lat="61.10799" lon="25.931636">
<time>2020-09-09T14:24:46Z</time>
</trkpt>
<trkpt lat="61.107977" lon="25.931691">
<time>2020-09-09T14:24:47Z</time>
</trkpt>
<trkpt lat="61.107964" lon="25.931722">
<time>2020-09-09T14:24:48Z</time>
</trkpt>
<trkpt lat="61.107952" lon="25.931718">
<time>2020-09-09T14:24:49Z</time>
</trkpt>
<trkpt lat="61.107933" lon="25.931699">
<time>2020-09-09T14:24:50Z</time>
</trkpt>
<trkpt lat="61.107909" lon="25.931669">
<time>2020-09-09T14:24:51Z</time>
</trkpt>
<trkpt lat="61.107889" lon="25.931645">
<time>2020-09-09T14:24:52Z</time>
</trkpt>
<trkpt lat="61.107879" lon="25.931618">
<time>2020-09-09T14:24:53Z</time>
</trkpt>
<trkpt lat="61.107878" lon="25.931583">
<time>2020-09-09T14:24:54Z</time>
</trkpt>
<trkpt lat="61.107889" lon="25.931545">
<time>2020-09-09T14:24:55Z</time>
</trkpt>
<trkpt lat="61.107901" lon="25.931517">
<time>2020-09-09T14:24:56Z</time>
</trkpt>
<trkpt lat="61.107918" lon="25.931492">
<time>2020-09-09T14:24:57Z</time>
</trkpt>
<trkpt lat="61.107944" lon="25.931467">
<time>2020-09-09T14:24:58Z</time>
</trkpt>
<trkpt lat="61.107978" lon="25.931455">
<time>2020-09-09T14:24:59Z</time>
</trkpt>
<trkpt lat="61.108013" lon="25.931428">
<time>2020-09-09T14:25:00Z</time>
</trkpt>
<trkpt lat="61.108039" lon="25.931367">
<time>2020-09-09T14:25:01Z</time>
</trkpt>
<trkpt lat="61.108062" lon="25.931287">
<time>2020-09-09T14:25:02Z</time>
</trkpt>
<trkpt lat="61.108076" lon="25.931197">
<time>2020-09-09T14:25:03Z</time>
</trkpt>
<trkpt lat="61.108077" lon="25.931106">
<time>2020-09-09T14:25:04Z</time>
</trkpt>
<trkpt lat="61.10806" lon="25.931034">
<time>2020-09-09T14:25:05Z</time>
</trkpt>
<trkpt lat="61.108028" lon="25.930976">
<time>2020-09-09T14:25:06Z</time>
</trkpt>
<trkpt lat="61.107992" lon="25.930927">
<time>2020-09-09T14:25:07Z</time>
</trkpt>
<trkpt lat="61.107953" lon="25.930888">
<time>2020-09-09T14:25:08Z</time>
</trkpt>
<trkpt lat="61.107915" lon="25.93084">
<time>2020-09-09T14:25:09Z</time>
</trkpt>
<trkpt lat="61.107869" lon="25.930799">
<time>2020-09-09T14:25:10Z</time>
</trkpt>
<trkpt lat="61.107819" lon="25.930757">
<time>2020-09-09T14:25:11Z</time>
</trkpt>
<trkpt lat="61.107767" lon="25.930719">
<time>2020-09-09T14:25:12Z</time>
</trkpt>
<trkpt lat="61.107711" lon="25.930683">
<time>2020-09-09T14:25:13Z</time>
</trkpt>
<trkpt lat="61.107651" lon="25.930663">
<time>2020-09-09T14:25:14Z</time>
</trkpt>
<trkpt lat="61.107587" lon="25.930656">
<time>2020-09-09T14:25:15Z</time>
</trkpt>
<trkpt lat="61.107521" lon="25.930646">
<time>2020-09-09T14:25:16Z</time>
</trkpt>
<trkpt lat="61.107457" lon="25.930598">
<time>2020-09-09T14:25:17Z</time>
</trkpt>
<trkpt lat="61.107408" lon="25.930516">
<time>2020-09-09T14:25:18Z</time>
</trkpt>
<trkpt lat="61.107382" lon="25.930416">
<time>2020-09-09T14:25:19Z</time>
</trkpt>
<trkpt lat="61.107369" lon="25.930291">
<time>2020-09-09T14:25:20Z</time>
</trkpt>
<trkpt lat="61.107358" lon="25.93015">
<time>2020-09-09T14:25:21Z</time>
</trkpt>
<trkpt lat="61.107345" lon="25.929998">
<time>2020-09-09T14:25:22Z</time>
</trkpt>
<trkpt lat="61.107336" lon="25.929841">
<time>2020-09-09T14:25:23Z</time>
</trkpt>
<trkpt lat="61.107322" lon="25.92968">
<time>2020-09-09T14:25:24Z</time>
</trkpt>
<trkpt lat="61.107307" lon="25.929518">
<time>2020-09-09T14:25:25Z</time>
</trkpt>
<trkpt lat="61.107298" lon="25.929359">
<time>2020-09-09T14:25:26Z</time>
</trkpt>
<trkpt lat="61.107284" lon="25.929209">
<time>2020-09-09T14:25:27Z</time>
</trkpt>
<trkpt lat="61.107271" lon="25.929057">
<time>2020-09-09T14:25:28Z</time>
</trkpt>
<trkpt lat="61.107256" lon="25.928898">
<time>2020-09-09T14:25:29Z</time>
</trkpt>
<trkpt lat="61.107244" lon="25.928737">
<time>2020-09-09T14:25:30Z</time>
</trkpt>
<trkpt lat="61.107235" lon="25.928575">
<time>2020-09-09T14:25:31Z</time>
</trkpt>
<trkpt lat="61.107224" lon="25.928416">
<time>2020-09-09T14:25:32Z</time>
</trkpt>
<trkpt lat="61.107213" lon="25.928255">
<time>2020-09-09T14:25:33Z</time>
</trkpt>
<trkpt lat="61.107201" lon="25.928092">
<time>2020-09-09T14:25:34Z</time>
</trkpt>
<trkpt lat="61.107187" lon="25.927934">
<time>2020-09-09T14:25:35Z</time>
</trkpt>
<trkpt lat="61.107171" lon="25.927773">
<time>2020-09-09T14:25:36Z</time>
</trkpt>
<trkpt lat="61.107152" lon="25.927614">
<time>2020-09-09T14:25:37Z</time>
</trkpt>
<trkpt lat="61.107134" lon="25.927455">
<time>2020-09-09T14:25:38Z</time>
</trkpt>
<trkpt lat="61.107114" lon="25.927293">
<time>2020-09-09T14:25:39Z</time>
</trkpt>
<trkpt lat="61.107097" lon="25.927143">
<time>2020-09-09T14:25:40Z</time>
</trkpt>
<trkpt lat="61.107078" lon="25.926984">
<time>2020-09-09T14:25:41Z</time>
</trkpt>
<trkpt lat="61.10706" lon="25.926825">
<time>2020-09-09T14:25:42Z</time>
</trkpt>
<trkpt lat="61.107046" lon="25.92667">
<time>2020-09-09T14:25:43Z</time>
</trkpt>
<trkpt lat="61.107037" lon="25.926516">
<time>2020-09-09T14:25:44Z</time>
</trkpt>
<trkpt lat="61.107029" lon="25.926363">
<time>2020-09-09T14:25:45Z</time>
</trkpt>
<trkpt lat="61.107023" lon="25.926216">
<time>2020-09-09T14:25:46Z</time>
</trkpt>
<trkpt lat="61.107017" lon="25.926074">
<time>2020-09-09T14:25:47Z</time>
</trkpt>
<trkpt lat="61.107007" lon="25.925939">
<time>2020-09-09T14:25:48Z</time>
</trkpt>
<trkpt lat="61.106995" lon="25.925806">
<time>2020-09-09T14:25:49Z</time>
</trkpt>
<trkpt lat="61.106984" lon="25.925677">
<time>2020-09-09T14:25:50Z</time>
</trkpt>
<trkpt lat="61.106973" lon="25.925551">
<time>2020-09-09T14:25:51Z</time>
</trkpt>
<trkpt lat="61.106959" lon="25.925438">
<time>2020-09-09T14:25:52Z</time>
</trkpt>
<trkpt lat="61.106944" lon="25.925324">
<time>2020-09-09T14:25:53Z</time>
</trkpt>
<trkpt lat="61.106924" lon="25.925225">
<time>2020-09-09T14:25:54Z</time>
</trkpt>
<trkpt lat="61.106908" lon="25.925121">
<time>2020-09-09T14:25:55Z</time>
</trkpt>
<trkpt lat="61.106889" lon="25.925011">
<time>2020-09-09T14:25:56Z</time>
</trkpt>
<trkpt lat="61.106875" lon="25.9249">
<time>2020-09-09T14:25:57Z</time>
</trkpt>
<trkpt lat="61.106858" lon="25.924792">
<time>2020-09-09T14:25:58Z</time>
</trkpt>
<trkpt lat="61.106844" lon="25.9247">
<time>2020-09-09T14:25:59Z</time>
</trkpt>
<trkpt lat="61.10683" lon="25.924606">
<time>2020-09-09T14:26:00Z</time>
</trkpt>
<trkpt lat="61.106802" lon="25.924512">
<time>2020-09-09T14:26:01Z</time>
</trkpt>
<trkpt lat="61.106777" lon="25.924417">
<time>2020-09-09T14:26:02Z</time>
</trkpt>
<trkpt lat="61.106755" lon="25.924319">
<time>2020-09-09T14:26:03Z</time>
</trkpt>
<trkpt lat="61.106734" lon="25.924212">
<time>2020-09-09T14:26:04Z</time>
</trkpt>
<trkpt lat="61.106716" lon="25.924117">
<time>2020-09-09T14:26:05Z</time>
</trkpt>
<trkpt lat="61.106698" lon="25.924019">
<time>2020-09-09T14:26:06Z</time>
</trkpt>
<trkpt lat="61.106684" lon="25.923927">
<time>2020-09-09T14:26:07Z</time>
</trkpt>
<trkpt lat="61.106675" lon="25.923814">
<time>2020-09-09T14:26:08Z</time>
</trkpt>
<trkpt lat="61.106665" lon="25.923707">
<time>2020-09-09T14:26:09Z</time>
</trkpt>
<trkpt lat="61.106658" lon="25.92359">
<time>2020-09-09T14:26:10Z</time>
</trkpt>
<trkpt lat="61.106646" lon="25.923472">
<time>2020-09-09T14:26:11Z</time>
</trkpt>
<trkpt lat="61.10663" lon="25.923353">
<time>2020-09-09T14:26:12Z</time>
</trkpt>
<trkpt lat="61.106605" lon="25.92325">
<time>2020-09-09T14:26:13Z</time>
</trkpt>
<trkpt lat="61.106565" lon="25.923164">
<time>2020-09-09T14:26:14Z</time>
</trkpt>
<trkpt lat="61.10651" lon="25.923119">
<time>2020-09-09T14:26:15Z</time>
</trkpt>
<trkpt lat="61.106445" lon="25.92311">
<time>2020-09-09T14:26:16Z</time>
</trkpt>
<trkpt lat="61.106378" lon="25.923114">
<time>2020-09-09T14:26:17Z</time>
</trkpt>
<trkpt lat="61.106318" lon="25.923112">
<time>2020-09-09T14:26:18Z</time>
</trkpt>
<trkpt lat="61.106263" lon="25.923097">
<time>2020-09-09T14:26:19Z</time>
</trkpt>
<trkpt lat="61.106219" lon="25.923059">
<time>2020-09-09T14:26:20Z</time>
</trkpt>
<trkpt lat="61.106191" lon="25.923023">
<time>2020-09-09T14:26:21Z</time>
</trkpt>
<trkpt lat="61.106172" lon="25.923009">
<time>2020-09-09T14:26:22Z</time>
</trkpt>
<trkpt lat="61.106149" lon="25.923006">
<time>2020-09-09T14:26:23Z</time>
</trkpt>
<trkpt lat="61.106135" lon="25.923024">
<time>2020-09-09T14:26:24Z</time>
</trkpt>
<trkpt lat="61.106122" lon="25.923083">
<time>2020-09-09T14:26:25Z</time>
</trkpt>
<trkpt lat="61.106115" lon="25.923122">
<time>2020-09-09T14:26:26Z</time>
</trkpt>
<trkpt lat="61.106099" lon="25.923156">
<time>2020-09-09T14:26:27Z</time>
</trkpt>
<trkpt lat="61.106074" lon="25.923191">
<time>2020-09-09T14:26:28Z</time>
</trkpt>
<trkpt lat="61.106052" lon="25.923221">
<time>2020-09-09T14:26:29Z</time>
</trkpt>
<trkpt lat="61.106025" lon="25.923251">
<time>2020-09-09T14:26:30Z</time>
</trkpt>
<trkpt lat="61.105992" lon="25.923275">
<time>2020-09-09T14:26:31Z</time>
</trkpt>
<trkpt lat="61.10595" lon="25.923295">
<time>2020-09-09T14:26:32Z</time>
</trkpt>
<trkpt lat="61.105899" lon="25.923322">
<time>2020-09-09T14:26:33Z</time>
</trkpt>
<trkpt lat="61.105852" lon="25.923358">
<time>2020-09-09T14:26:34Z</time>
</trkpt>
<trkpt lat="61.105828" lon="25.923421">
<time>2020-09-09T14:26:35Z</time>
</trkpt>
<trkpt lat="61.105817" lon="25.923503">
<time>2020-09-09T14:26:36Z</time>
</trkpt>
<trkpt lat="61.105815" lon="25.923596">
<time>2020-09-09T14:26:37Z</time>
</trkpt>
<trkpt lat="61.105833" lon="25.923696">
<time>2020-09-09T14:26:38Z</time>
</trkpt>
<trkpt lat="61.105852" lon="25.923799">
<time>2020-09-09T14:26:39Z</time>
</trkpt>
<trkpt lat="61.105864" lon="25.923897">
<time>2020-09-09T14:26:40Z</time>
</trkpt>
<trkpt lat="61.10587" lon="25.924002">
<time>2020-09-09T14:26:41Z</time>
</trkpt>
<trkpt lat="61.105882" lon="25.924112">
<time>2020-09-09T14:26:42Z</time>
</trkpt>
<trkpt lat="61.105903" lon="25.924242">
<time>2020-09-09T14:26:43Z</time>
</trkpt>
<trkpt lat="61.105928" lon="25.924366">
<time>2020-09-09T14:26:44Z</time>
</trkpt>
<trkpt lat="61.105939" lon="25.924497">
<time>2020-09-09T14:26:45Z</time>
</trkpt>
<trkpt lat="61.105961" lon="25.924646">
<time>2020-09-09T14:26:46Z</time>
</trkpt>
<trkpt lat="61.105977" lon="25.924805">
<time>2020-09-09T14:26:47Z</time>
</trkpt>
<trkpt lat="61.106" lon="25.92496">
<time>2020-09-09T14:26:48Z</time>
</trkpt>
<trkpt lat="61.106027" lon="25.925125">
<time>2020-09-09T14:26:49Z</time>
</trkpt>
<trkpt lat="61.106043" lon="25.925302">
<time>2020-09-09T14:26:50Z</time>
</trkpt>
<trkpt lat="61.106068" lon="25.925483">
<time>2020-09-09T14:26:51Z</time>
</trkpt>
<trkpt lat="61.106099" lon="25.925646">
<time>2020-09-09T14:26:52Z</time>
</trkpt>
<trkpt lat="61.106124" lon="25.925844">
<time>2020-09-09T14:26:53Z</time>
</trkpt>
<trkpt lat="61.106147" lon="25.926027">
<time>2020-09-09T14:26:54Z</time>
</trkpt>
<trkpt lat="61.106185" lon="25.92621">
<time>2020-09-09T14:26:55Z</time>
</trkpt>
<trkpt lat="61.106209" lon="25.926381">
<time>2020-09-09T14:26:56Z</time>
</trkpt>
<trkpt lat="61.106234" lon="25.926562">
<time>2020-09-09T14:26:57Z</time>
</trkpt>
<trkpt lat="61.106263" lon="25.92674">
<time>2020-09-09T14:26:58Z</time>
</trkpt>
<trkpt lat="61.106286" lon="25.926942">
<time>2020-09-09T14:26:59Z</time>
</trkpt>
<trkpt lat="61.106308" lon="25.927117">
<time>2020-09-09T14:27:00Z</time>
</trkpt>
<trkpt lat="61.106314" lon="25.927306">
<time>2020-09-09T14:27:01Z</time>
</trkpt>
<trkpt lat="61.106317" lon="25.927482">
<time>2020-09-09T14:27:02Z</time>
</trkpt>
<trkpt lat="61.10631" lon="25.927665">
<time>2020-09-09T14:27:03Z</time>
</trkpt>
<trkpt lat="61.106314" lon="25.92787">
<time>2020-09-09T14:27:04Z</time>
</trkpt>
<trkpt lat="61.106317" lon="25.928066">
<time>2020-09-09T14:27:05Z</time>
</trkpt>
<trkpt lat="61.106318" lon="25.928246">
<time>2020-09-09T14:27:06Z</time>
</trkpt>
<trkpt lat="61.106327" lon="25.92843">
<time>2020-09-09T14:27:07Z</time>
</trkpt>
<trkpt lat="61.106322" lon="25.928605">
<time>2020-09-09T14:27:08Z</time>
</trkpt>
<trkpt lat="61.106309" lon="25.928764">
<time>2020-09-09T14:27:09Z</time>
</trkpt>
<trkpt lat="61.106278" lon="25.928911">
<time>2020-09-09T14:27:10Z</time>
</trkpt>
<trkpt lat="61.106226" lon="25.929034">
<time>2020-09-09T14:27:11Z</time>
</trkpt>
<trkpt lat="61.106173" lon="25.929143">
<time>2020-09-09T14:27:12Z</time>
</trkpt>
<trkpt lat="61.106101" lon="25.929239">
<time>2020-09-09T14:27:13Z</time>
</trkpt>
<trkpt lat="61.106015" lon="25.929318">
<time>2020-09-09T14:27:14Z</time>
</trkpt>
<trkpt lat="61.105941" lon="25.929392">
<time>2020-09-09T14:27:15Z</time>
</trkpt>
<trkpt lat="61.105838" lon="25.92945">
<time>2020-09-09T14:27:16Z</time>
</trkpt>
<trkpt lat="61.105751" lon="25.929507">
<time>2020-09-09T14:27:17Z</time>
</trkpt>
<trkpt lat="61.105681" lon="25.929579">
<time>2020-09-09T14:27:18Z</time>
</trkpt>
<trkpt lat="61.105663" lon="25.929685">
<time>2020-09-09T14:27:19Z</time>
</trkpt>
<trkpt lat="61.105668" lon="25.929803">
<time>2020-09-09T14:27:20Z</time>
</trkpt>
<trkpt lat="61.105667" lon="25.929927">
<time>2020-09-09T14:27:21Z</time>
</trkpt>
<trkpt lat="61.105647" lon="25.930055">
<time>2020-09-09T14:27:22Z</time>
</trkpt>
<trkpt lat="61.105603" lon="25.93017">
<time>2020-09-09T14:27:23Z</time>
</trkpt>
<trkpt lat="61.105556" lon="25.93024">
<time>2020-09-09T14:27:24Z</time>
</trkpt>
<trkpt lat="61.105515" lon="25.930298">
<time>2020-09-09T14:27:25Z</time>
</trkpt>
<trkpt lat="61.105502" lon="25.930343">
<time>2020-09-09T14:27:26Z</time>
</trkpt>
<trkpt lat="61.105513" lon="25.930365">
<time>2020-09-09T14:27:27Z</time>
</trkpt>
<trkpt lat="61.105528" lon="25.93038">
<time>2020-09-09T14:27:28Z</time>
</trkpt>
</trkseg>
<name>Antonio</name>
</trk>
</gpx>